DLH490 EDDF-KSEA
Flight info
| Callsign | DLH490 |
|---|---|
| Flight time | N/A |
| Altitude | 36000 |
| Route | OBOKA3M/25C OBOKA Z28 DIBIR DCT BUDIP DCT PETIK DCT AMGOD DCT TOPPA DCT ROLUM DCT UPNAL DCT NALAN/M080F360 DCT 63N010W 6730N02000W 70N030W/M080F380 72N040W 73N060W DCT MEDPA/N0448F380 DCT 71N080W 6830N09000W 65N100W/N0462F400 60N110W 55N116W DCT LONRO/N0452F410 DCT TEMPL GLASR3 |
| Aircraft | A343/H-SDE2E3FGHIJ3J5M1P2RWXYZ/LB1D1 |
Departure
| Time | 2026-05-07 09:07 |
|---|---|
| Airport | Frankfurt Main Airport (EDDF) |
Arrival
| Time | N/A |
|---|---|
| Airport | Seattle–Tacoma International Airport (KSEA) |
| Time | Latitude | Longitude | Altitude | Speed | Heading |
|---|---|---|---|---|---|
| 2026-05-07 08:30 | 50.04544 | 8.56742 | 360 ft | 0 kts | 295° |
| 2026-05-07 08:48 | 50.04541 | 8.56753 | 367 ft | 3 kts | 296° |
| 2026-05-07 08:48 | 50.04532 | 8.56783 | 365 ft | 3 kts | 286° |
| 2026-05-07 08:48 | 50.04530 | 8.56812 | 368 ft | 2 kts | 256° |
| 2026-05-07 08:48 | 50.04535 | 8.56841 | 367 ft | 3 kts | 250° |
| 2026-05-07 08:49 | 50.04543 | 8.56870 | 369 ft | 3 kts | 233° |
| 2026-05-07 08:49 | 50.04558 | 8.56892 | 367 ft | 3 kts | 202° |
| 2026-05-07 08:49 | 50.04559 | 8.56894 | 367 ft | 3 kts | 193° |
| 2026-05-07 08:49 | 50.04540 | 8.56887 | 367 ft | 2 kts | 193° |
| 2026-05-07 08:50 | 50.04538 | 8.56887 | 367 ft | 0 kts | 193° |
| 2026-05-07 08:54 | 50.04527 | 8.56883 | 368 ft | 3 kts | 193° |
| 2026-05-07 08:54 | 50.04496 | 8.56871 | 363 ft | 6 kts | 193° |
| 2026-05-07 08:54 | 50.04445 | 8.56856 | 369 ft | 9 kts | 189° |
| 2026-05-07 08:55 | 50.04368 | 8.56836 | 368 ft | 12 kts | 192° |
| 2026-05-07 08:55 | 50.04291 | 8.56844 | 368 ft | 8 kts | 137° |
| 2026-05-07 08:55 | 50.04284 | 8.56923 | 369 ft | 9 kts | 79° |
| 2026-05-07 08:55 | 50.04309 | 8.57039 | 368 ft | 13 kts | 71° |
| 2026-05-07 08:56 | 50.04341 | 8.57176 | 369 ft | 14 kts | 69° |
| 2026-05-07 08:56 | 50.04375 | 8.57317 | 372 ft | 14 kts | 69° |
| 2026-05-07 08:56 | 50.04411 | 8.57466 | 371 ft | 15 kts | 69° |
| 2026-05-07 08:56 | 50.04447 | 8.57614 | 372 ft | 14 kts | 69° |
| 2026-05-07 08:57 | 50.04481 | 8.57756 | 371 ft | 14 kts | 69° |
| 2026-05-07 08:57 | 50.04517 | 8.57905 | 349 ft | 15 kts | 69° |
| 2026-05-07 08:57 | 50.04554 | 8.58061 | 371 ft | 16 kts | 69° |
| 2026-05-07 08:57 | 50.04588 | 8.58200 | 374 ft | 12 kts | 69° |
| 2026-05-07 08:58 | 50.04613 | 8.58311 | 377 ft | 10 kts | 71° |
| 2026-05-07 08:58 | 50.04637 | 8.58418 | 374 ft | 11 kts | 71° |
| 2026-05-07 08:58 | 50.04651 | 8.58523 | 375 ft | 9 kts | 95° |
| 2026-05-07 08:58 | 50.04621 | 8.58572 | 373 ft | 2 kts | 158° |
| 2026-05-07 08:59 | 50.04614 | 8.58576 | 374 ft | 0 kts | 159° |
| 2026-05-07 09:04 | 50.04613 | 8.58577 | 373 ft | 0 kts | 159° |
| 2026-05-07 09:04 | 50.04606 | 8.58581 | 373 ft | 2 kts | 159° |
| 2026-05-07 09:04 | 50.04581 | 8.58596 | 375 ft | 6 kts | 159° |
| 2026-05-07 09:05 | 50.04555 | 8.58610 | 376 ft | 8 kts | 160° |
| 2026-05-07 09:05 | 50.04508 | 8.58621 | 378 ft | 1 kts | 183° |
| 2026-05-07 09:05 | 50.04500 | 8.58618 | 377 ft | 2 kts | 196° |
| 2026-05-07 09:05 | 50.04487 | 8.58589 | 379 ft | 5 kts | 241° |
| 2026-05-07 09:06 | 50.04478 | 8.58552 | 374 ft | 0 kts | 249° |
| 2026-05-07 09:06 | 50.04461 | 8.58483 | 377 ft | 26 kts | 249° |
| 2026-05-07 09:06 | 50.04334 | 8.57956 | 370 ft | 77 kts | 249° |
| 2026-05-07 09:07 | 50.04097 | 8.56959 | 370 ft | 118 kts | 250° |
| 2026-05-07 09:07 | 50.03766 | 8.55578 | 356 ft | 153 kts | 250° |
| 2026-05-07 09:07 | 50.03399 | 8.53985 | 755 ft | 149 kts | 253° |
| 2026-05-07 09:07 | 50.03048 | 8.52476 | 1211 ft | 142 kts | 253° |
| 2026-05-07 09:08 | 50.02686 | 8.51085 | 1560 ft | 143 kts | 239° |
| 2026-05-07 09:08 | 50.01813 | 8.50215 | 1611 ft | 163 kts | 201° |
| 2026-05-07 09:08 | 50.00692 | 8.49676 | 1826 ft | 175 kts | 200° |
| 2026-05-07 09:08 | 49.99491 | 8.49058 | 2025 ft | 189 kts | 201° |
| 2026-05-07 09:09 | 49.98213 | 8.48328 | 2272 ft | 201 kts | 202° |
| 2026-05-07 09:09 | 49.96878 | 8.47523 | 2534 ft | 215 kts | 204° |
| 2026-05-07 09:09 | 49.95399 | 8.46735 | 2758 ft | 233 kts | 198° |
| 2026-05-07 09:09 | 49.93795 | 8.45997 | 3074 ft | 247 kts | 198° |
| 2026-05-07 09:10 | 49.92143 | 8.45127 | 3459 ft | 254 kts | 208° |
| 2026-05-07 09:10 | 49.90825 | 8.43362 | 3879 ft | 253 kts | 237° |
| 2026-05-07 09:10 | 49.89884 | 8.41038 | 4450 ft | 257 kts | 242° |
| 2026-05-07 09:10 | 49.89004 | 8.38608 | 5171 ft | 259 kts | 247° |
| 2026-05-07 09:11 | 49.88575 | 8.35921 | 5886 ft | 259 kts | 271° |
| 2026-05-07 09:11 | 49.88676 | 8.33121 | 6571 ft | 262 kts | 281° |
| 2026-05-07 09:11 | 49.89186 | 8.30409 | 7265 ft | 262 kts | 297° |
| 2026-05-07 09:11 | 49.90268 | 8.28162 | 8011 ft | 262 kts | 318° |
| 2026-05-07 09:12 | 49.91700 | 8.26369 | 8705 ft | 266 kts | 323° |
| 2026-05-07 09:12 | 49.93188 | 8.24699 | 9383 ft | 269 kts | 323° |
| 2026-05-07 09:12 | 49.94742 | 8.22987 | 10057 ft | 272 kts | 323° |
| 2026-05-07 09:12 | 49.96317 | 8.21256 | 10456 ft | 284 kts | 324° |
| 2026-05-07 09:13 | 49.97951 | 8.19460 | 10712 ft | 300 kts | 324° |
| 2026-05-07 09:13 | 49.99696 | 8.17545 | 10980 ft | 314 kts | 324° |
| 2026-05-07 09:13 | 50.01518 | 8.15543 | 11263 ft | 327 kts | 324° |
| 2026-05-07 09:13 | 50.03412 | 8.13461 | 11589 ft | 339 kts | 324° |
| 2026-05-07 09:14 | 50.05356 | 8.11324 | 12038 ft | 346 kts | 324° |
| 2026-05-07 09:14 | 50.07331 | 8.09148 | 12631 ft | 349 kts | 324° |
| 2026-05-07 09:14 | 50.09327 | 8.06946 | 13151 ft | 354 kts | 324° |
| 2026-05-07 09:14 | 50.11349 | 8.04714 | 13744 ft | 358 kts | 324° |
| 2026-05-07 09:15 | 50.13384 | 8.02465 | 14319 ft | 360 kts | 324° |
| 2026-05-07 09:15 | 50.15437 | 8.00193 | 14822 ft | 364 kts | 324° |
| 2026-05-07 09:15 | 50.17508 | 7.97900 | 15393 ft | 367 kts | 324° |
| 2026-05-07 09:15 | 50.19591 | 7.95589 | 15933 ft | 369 kts | 324° |
| 2026-05-07 09:16 | 50.21695 | 7.93255 | 16418 ft | 374 kts | 324° |
| 2026-05-07 09:16 | 50.23820 | 7.90894 | 16958 ft | 376 kts | 324° |
| 2026-05-07 09:16 | 50.25960 | 7.88513 | 17459 ft | 380 kts | 324° |
| 2026-05-07 09:16 | 50.28130 | 7.86096 | 17919 ft | 385 kts | 324° |
| 2026-05-07 09:17 | 50.30306 | 7.83670 | 18519 ft | 384 kts | 324° |
| 2026-05-07 09:17 | 50.32488 | 7.81236 | 18995 ft | 387 kts | 324° |
| 2026-05-07 09:17 | 50.34685 | 7.78781 | 19523 ft | 387 kts | 324° |
| 2026-05-07 09:17 | 50.36881 | 7.76326 | 19990 ft | 390 kts | 324° |
| 2026-05-07 09:18 | 50.39103 | 7.73838 | 20374 ft | 395 kts | 324° |
| 2026-05-07 09:18 | 50.41344 | 7.71326 | 20848 ft | 396 kts | 324° |
| 2026-05-07 09:18 | 50.43596 | 7.68799 | 21224 ft | 401 kts | 324° |
| 2026-05-07 09:18 | 50.45870 | 7.66243 | 21641 ft | 404 kts | 324° |
| 2026-05-07 09:19 | 50.48157 | 7.63669 | 22136 ft | 404 kts | 324° |
| 2026-05-07 09:19 | 50.50446 | 7.61091 | 22537 ft | 407 kts | 324° |
| 2026-05-07 09:19 | 50.52754 | 7.58487 | 22994 ft | 408 kts | 324° |
| 2026-05-07 09:19 | 50.55056 | 7.55888 | 23489 ft | 409 kts | 324° |
| 2026-05-07 09:20 | 50.57385 | 7.53256 | 23699 ft | 415 kts | 324° |
| 2026-05-07 09:20 | 50.59736 | 7.50594 | 24057 ft | 417 kts | 324° |
| 2026-05-07 09:20 | 50.62090 | 7.47927 | 24329 ft | 421 kts | 324° |
| 2026-05-07 09:20 | 50.64480 | 7.45214 | 24633 ft | 423 kts | 324° |
| 2026-05-07 09:21 | 50.66834 | 7.42538 | 24981 ft | 424 kts | 324° |
| 2026-05-07 09:21 | 50.69235 | 7.39807 | 25272 ft | 427 kts | 324° |
| 2026-05-07 09:21 | 50.71641 | 7.37064 | 25648 ft | 427 kts | 323° |
| 2026-05-07 09:21 | 50.73953 | 7.34090 | 25931 ft | 429 kts | 316° |
| 2026-05-07 09:22 | 50.75938 | 7.30578 | 26315 ft | 430 kts | 308° |
| 2026-05-07 09:22 | 50.77754 | 7.26803 | 26626 ft | 431 kts | 306° |
| 2026-05-07 09:22 | 50.79476 | 7.22988 | 27371 ft | 422 kts | 305° |
| 2026-05-07 09:22 | 50.81148 | 7.19178 | 27714 ft | 423 kts | 304° |
| 2026-05-07 09:23 | 50.82824 | 7.15321 | 27803 ft | 430 kts | 304° |
| 2026-05-07 09:23 | 50.84530 | 7.11404 | 27931 ft | 435 kts | 305° |
| 2026-05-07 09:23 | 50.86263 | 7.07450 | 28096 ft | 439 kts | 305° |
| 2026-05-07 09:23 | 50.88015 | 7.03473 | 28316 ft | 442 kts | 305° |
| 2026-05-07 09:24 | 50.89785 | 6.99468 | 28543 ft | 444 kts | 305° |
| 2026-05-07 09:24 | 50.91563 | 6.95460 | 28783 ft | 446 kts | 306° |
| 2026-05-07 09:24 | 50.93349 | 6.91427 | 29022 ft | 448 kts | 305° |
| 2026-05-07 09:24 | 50.95141 | 6.87370 | 29253 ft | 450 kts | 305° |
| 2026-05-07 09:25 | 50.96939 | 6.83291 | 29475 ft | 452 kts | 305° |
| 2026-05-07 09:25 | 50.98746 | 6.79186 | 29623 ft | 455 kts | 305° |
| 2026-05-07 09:25 | 51.00565 | 6.75047 | 29816 ft | 458 kts | 305° |
| 2026-05-07 09:25 | 51.02389 | 6.70888 | 30059 ft | 459 kts | 305° |
| 2026-05-07 09:26 | 51.04215 | 6.66719 | 30272 ft | 461 kts | 305° |
| 2026-05-07 09:26 | 51.06045 | 6.62533 | 30491 ft | 462 kts | 305° |
| 2026-05-07 09:26 | 51.07877 | 6.58340 | 30774 ft | 461 kts | 305° |
| 2026-05-07 09:26 | 51.09707 | 6.54143 | 31093 ft | 459 kts | 305° |
| 2026-05-07 09:27 | 51.11520 | 6.49978 | 31355 ft | 459 kts | 304° |
| 2026-05-07 09:27 | 51.13331 | 6.45805 | 31600 ft | 459 kts | 304° |
| 2026-05-07 09:27 | 51.16950 | 6.37443 | 32095 ft | 458 kts | 304° |
| 2026-05-07 09:28 | 51.18756 | 6.33261 | 32348 ft | 457 kts | 304° |
| 2026-05-07 09:28 | 51.20533 | 6.29141 | 32523 ft | 459 kts | 304° |
| 2026-05-07 09:28 | 51.22370 | 6.24876 | 32621 ft | 461 kts | 304° |
| 2026-05-07 09:28 | 51.24180 | 6.20668 | 32895 ft | 460 kts | 304° |
| 2026-05-07 09:29 | 51.25984 | 6.16467 | 33160 ft | 458 kts | 304° |
| 2026-05-07 09:29 | 51.27784 | 6.12268 | 33364 ft | 458 kts | 304° |
| 2026-05-07 09:29 | 51.29572 | 6.08052 | 33561 ft | 458 kts | 303° |
| 2026-05-07 09:29 | 51.31321 | 6.03802 | 33780 ft | 457 kts | 303° |
| 2026-05-07 09:30 | 51.33027 | 5.99596 | 34044 ft | 456 kts | 302° |
| 2026-05-07 09:30 | 51.34777 | 5.95366 | 34191 ft | 456 kts | 306° |
| 2026-05-07 09:30 | 51.36797 | 5.91448 | 34358 ft | 457 kts | 314° |
| 2026-05-07 09:30 | 51.39152 | 5.88039 | 34465 ft | 458 kts | 321° |
| 2026-05-07 09:31 | 51.41691 | 5.84950 | 34590 ft | 459 kts | 323° |
| 2026-05-07 09:31 | 51.44304 | 5.82010 | 34727 ft | 459 kts | 324° |
| 2026-05-07 09:31 | 51.46951 | 5.79141 | 34865 ft | 460 kts | 325° |
| 2026-05-07 09:31 | 51.49613 | 5.76289 | 34995 ft | 460 kts | 325° |
| 2026-05-07 09:32 | 51.52278 | 5.73429 | 35075 ft | 461 kts | 325° |
| 2026-05-07 09:32 | 51.54942 | 5.70548 | 35197 ft | 462 kts | 325° |
| 2026-05-07 09:32 | 51.57599 | 5.67652 | 35341 ft | 461 kts | 324° |
| 2026-05-07 09:32 | 51.60251 | 5.64744 | 35482 ft | 461 kts | 324° |
| 2026-05-07 09:33 | 51.62039 | 5.62777 | 35575 ft | 461 kts | 324° |
| 2026-05-07 09:33 | 51.65547 | 5.58903 | 35741 ft | 462 kts | 324° |
| 2026-05-07 09:33 | 51.67300 | 5.56963 | 35820 ft | 462 kts | 324° |
| 2026-05-07 09:33 | 51.69947 | 5.54031 | 35948 ft | 462 kts | 324° |
| 2026-05-07 09:34 | 51.72598 | 5.51092 | 36036 ft | 463 kts | 324° |
| 2026-05-07 09:34 | 51.77925 | 5.45176 | 36063 ft | 465 kts | 324° |
| 2026-05-07 09:35 | 51.83242 | 5.39256 | 36050 ft | 463 kts | 324° |
| 2026-05-07 09:35 | 51.88545 | 5.33334 | 36068 ft | 463 kts | 324° |
| 2026-05-07 09:36 | 51.93838 | 5.27405 | 36059 ft | 463 kts | 324° |
| 2026-05-07 09:36 | 51.99132 | 5.21457 | 36054 ft | 461 kts | 324° |
| 2026-05-07 09:37 | 52.04282 | 5.15659 | 36054 ft | 439 kts | 324° |
| 2026-05-07 09:37 | 52.09235 | 5.10063 | 36067 ft | 433 kts | 324° |
| 2026-05-07 09:38 | 52.14213 | 5.04418 | 36069 ft | 439 kts | 324° |
| 2026-05-07 09:38 | 52.19265 | 4.98677 | 36074 ft | 446 kts | 324° |
| 2026-05-07 09:39 | 52.24383 | 4.92846 | 36081 ft | 452 kts | 324° |
| 2026-05-07 09:39 | 52.29567 | 4.86924 | 36077 ft | 458 kts | 324° |
| 2026-05-07 09:40 | 52.34818 | 4.80906 | 36076 ft | 464 kts | 324° |
| 2026-05-07 09:40 | 52.40100 | 4.74837 | 36074 ft | 463 kts | 324° |
| 2026-05-07 09:41 | 52.45362 | 4.68770 | 36077 ft | 462 kts | 324° |
| 2026-05-07 09:41 | 52.50610 | 4.62702 | 36075 ft | 461 kts | 324° |
| 2026-05-07 09:42 | 52.55854 | 4.56621 | 36073 ft | 461 kts | 324° |
| 2026-05-07 09:42 | 52.61060 | 4.50568 | 36079 ft | 462 kts | 324° |
| 2026-05-07 09:43 | 52.66305 | 4.44450 | 36081 ft | 462 kts | 324° |
| 2026-05-07 09:43 | 52.71538 | 4.38324 | 36084 ft | 461 kts | 324° |
| 2026-05-07 09:44 | 52.76772 | 4.32183 | 36085 ft | 462 kts | 324° |
| 2026-05-07 09:44 | 52.82005 | 4.26024 | 36087 ft | 462 kts | 324° |
| 2026-05-07 09:45 | 52.87236 | 4.19848 | 36092 ft | 462 kts | 324° |
| 2026-05-07 09:45 | 52.92455 | 4.13668 | 36094 ft | 460 kts | 324° |
| 2026-05-07 09:46 | 52.97643 | 4.07505 | 36091 ft | 458 kts | 324° |
| 2026-05-07 09:46 | 53.02816 | 4.01342 | 36098 ft | 458 kts | 325° |
| 2026-05-07 09:47 | 53.07986 | 3.95164 | 36097 ft | 457 kts | 325° |
| 2026-05-07 09:47 | 53.13148 | 3.88976 | 36099 ft | 457 kts | 325° |
| 2026-05-07 09:48 | 53.18310 | 3.82769 | 36099 ft | 458 kts | 325° |
| 2026-05-07 09:48 | 53.23468 | 3.76548 | 36102 ft | 457 kts | 325° |
| 2026-05-07 09:49 | 53.28615 | 3.70322 | 36105 ft | 457 kts | 325° |
| 2026-05-07 09:49 | 53.33762 | 3.64078 | 36108 ft | 457 kts | 324° |
| 2026-05-07 09:50 | 53.39053 | 3.58205 | 36110 ft | 456 kts | 334° |
| 2026-05-07 09:50 | 53.45021 | 3.54799 | 36107 ft | 454 kts | 348° |
| 2026-05-07 09:51 | 53.51240 | 3.52890 | 36109 ft | 455 kts | 352° |
| 2026-05-07 09:51 | 53.57502 | 3.51308 | 36111 ft | 455 kts | 352° |
| 2026-05-07 09:52 | 53.63696 | 3.49180 | 36111 ft | 455 kts | 342° |
| 2026-05-07 09:52 | 53.69429 | 3.44658 | 36113 ft | 456 kts | 331° |
| 2026-05-07 09:53 | 53.74894 | 3.39210 | 36108 ft | 456 kts | 329° |
| 2026-05-07 09:53 | 53.80297 | 3.33585 | 36111 ft | 456 kts | 329° |
| 2026-05-07 09:54 | 53.85715 | 3.27977 | 36113 ft | 456 kts | 329° |
| 2026-05-07 09:54 | 53.91140 | 3.22400 | 36116 ft | 456 kts | 329° |
| 2026-05-07 09:55 | 53.96533 | 3.16858 | 36117 ft | 456 kts | 329° |
| 2026-05-07 09:55 | 54.01952 | 3.11272 | 36115 ft | 455 kts | 329° |
| 2026-05-07 09:56 | 54.07362 | 3.05675 | 36116 ft | 455 kts | 329° |
| 2026-05-07 09:56 | 54.12771 | 3.00060 | 36116 ft | 455 kts | 329° |
| 2026-05-07 09:57 | 54.18179 | 2.94429 | 36117 ft | 455 kts | 329° |
| 2026-05-07 09:57 | 54.23581 | 2.88788 | 36118 ft | 455 kts | 328° |
| 2026-05-07 09:58 | 54.28980 | 2.83131 | 36117 ft | 455 kts | 328° |
| 2026-05-07 09:58 | 54.34368 | 2.77467 | 36121 ft | 454 kts | 328° |
| 2026-05-07 09:59 | 54.39755 | 2.71788 | 36121 ft | 454 kts | 328° |
| 2026-05-07 09:59 | 54.45147 | 2.66086 | 36121 ft | 455 kts | 328° |
| 2026-05-07 10:00 | 54.50538 | 2.60370 | 36121 ft | 455 kts | 328° |
| 2026-05-07 10:00 | 54.55923 | 2.54638 | 36124 ft | 455 kts | 328° |
| 2026-05-07 10:01 | 54.61307 | 2.48888 | 36123 ft | 455 kts | 328° |
| 2026-05-07 10:01 | 54.66685 | 2.43128 | 36121 ft | 455 kts | 328° |
| 2026-05-07 10:02 | 54.72062 | 2.37351 | 36116 ft | 455 kts | 327° |
| 2026-05-07 10:02 | 54.77436 | 2.31561 | 36118 ft | 455 kts | 327° |
| 2026-05-07 10:03 | 54.82801 | 2.25760 | 36116 ft | 454 kts | 327° |
| 2026-05-07 10:03 | 54.88161 | 2.19945 | 36115 ft | 454 kts | 327° |
| 2026-05-07 10:04 | 54.93521 | 2.14114 | 36117 ft | 455 kts | 327° |
| 2026-05-07 10:04 | 54.98843 | 2.08304 | 36117 ft | 455 kts | 327° |
| 2026-05-07 10:05 | 55.04195 | 2.02445 | 36120 ft | 454 kts | 326° |
| 2026-05-07 10:05 | 55.09539 | 1.96574 | 36110 ft | 453 kts | 326° |
| 2026-05-07 10:06 | 55.14874 | 1.90695 | 36109 ft | 453 kts | 327° |
| 2026-05-07 10:06 | 55.20210 | 1.84796 | 36109 ft | 454 kts | 327° |
| 2026-05-07 10:07 | 55.25540 | 1.78884 | 36119 ft | 453 kts | 326° |
| 2026-05-07 10:07 | 55.30857 | 1.72968 | 36111 ft | 452 kts | 326° |
| 2026-05-07 10:08 | 55.36169 | 1.67038 | 36111 ft | 452 kts | 326° |
| 2026-05-07 10:08 | 55.41471 | 1.61100 | 36105 ft | 452 kts | 326° |
| 2026-05-07 10:09 | 55.46769 | 1.55147 | 36102 ft | 452 kts | 326° |
| 2026-05-07 10:09 | 55.52062 | 1.49182 | 36112 ft | 452 kts | 326° |
| 2026-05-07 10:10 | 55.57346 | 1.43207 | 36102 ft | 450 kts | 326° |
| 2026-05-07 10:10 | 55.62607 | 1.37238 | 36102 ft | 449 kts | 326° |
| 2026-05-07 10:11 | 55.67868 | 1.31249 | 36097 ft | 449 kts | 326° |
| 2026-05-07 10:11 | 55.73126 | 1.25246 | 36097 ft | 449 kts | 326° |
| 2026-05-07 10:12 | 55.78378 | 1.19229 | 36115 ft | 449 kts | 325° |
| 2026-05-07 10:12 | 55.83615 | 1.13212 | 36096 ft | 447 kts | 325° |
| 2026-05-07 10:13 | 55.88831 | 1.07197 | 36089 ft | 447 kts | 325° |
| 2026-05-07 10:13 | 55.94042 | 1.01167 | 36089 ft | 447 kts | 325° |
| 2026-05-07 10:14 | 55.99256 | 0.95116 | 36089 ft | 447 kts | 325° |
| 2026-05-07 10:14 | 56.04464 | 0.89052 | 36083 ft | 447 kts | 325° |
| 2026-05-07 10:15 | 56.09669 | 0.82972 | 36086 ft | 447 kts | 325° |
| 2026-05-07 10:15 | 56.14873 | 0.76872 | 36086 ft | 447 kts | 325° |
| 2026-05-07 10:16 | 56.20070 | 0.70761 | 36083 ft | 447 kts | 324° |
| 2026-05-07 10:16 | 56.25267 | 0.64631 | 36075 ft | 447 kts | 324° |
| 2026-05-07 10:17 | 56.30458 | 0.58486 | 36087 ft | 447 kts | 324° |
| 2026-05-07 10:17 | 56.35641 | 0.52331 | 36075 ft | 446 kts | 324° |
| 2026-05-07 10:18 | 56.40778 | 0.46210 | 36075 ft | 446 kts | 324° |
| 2026-05-07 10:18 | 56.45952 | 0.40025 | 36067 ft | 446 kts | 324° |
| 2026-05-07 10:19 | 56.50280 | 0.34835 | 36067 ft | 446 kts | 324° |
| 2026-05-07 10:19 | 56.56284 | 0.27612 | 36067 ft | 446 kts | 324° |
| 2026-05-07 10:20 | 56.60571 | 0.22439 | 36062 ft | 445 kts | 323° |
| 2026-05-07 10:20 | 56.65715 | 0.16210 | 36058 ft | 444 kts | 323° |
| 2026-05-07 10:21 | 56.70852 | 0.09968 | 36060 ft | 444 kts | 323° |
| 2026-05-07 10:21 | 56.75987 | 0.03709 | 36056 ft | 444 kts | 323° |
| 2026-05-07 10:22 | 56.81119 | -0.02567 | 36054 ft | 444 kts | 323° |
| 2026-05-07 10:22 | 56.86244 | -0.08854 | 36052 ft | 443 kts | 322° |
| 2026-05-07 10:23 | 56.91352 | -0.15144 | 36049 ft | 443 kts | 322° |
| 2026-05-07 10:23 | 56.96452 | -0.21444 | 36048 ft | 442 kts | 322° |
| 2026-05-07 10:24 | 57.01552 | -0.27766 | 36045 ft | 442 kts | 322° |
| 2026-05-07 10:24 | 57.06653 | -0.34110 | 36048 ft | 442 kts | 322° |
| 2026-05-07 10:25 | 57.11744 | -0.40463 | 36070 ft | 442 kts | 322° |
| 2026-05-07 10:25 | 57.16824 | -0.46822 | 36044 ft | 441 kts | 322° |
| 2026-05-07 10:26 | 57.21897 | -0.53196 | 36040 ft | 441 kts | 321° |
| 2026-05-07 10:26 | 57.26960 | -0.59579 | 36036 ft | 441 kts | 321° |
| 2026-05-07 10:27 | 57.32021 | -0.65980 | 36035 ft | 441 kts | 321° |
| 2026-05-07 10:27 | 57.37079 | -0.72400 | 36028 ft | 441 kts | 321° |
| 2026-05-07 10:28 | 57.42131 | -0.78833 | 36022 ft | 440 kts | 321° |
| 2026-05-07 10:28 | 57.47170 | -0.85271 | 36024 ft | 439 kts | 321° |
| 2026-05-07 10:29 | 57.52202 | -0.91724 | 36021 ft | 439 kts | 321° |
| 2026-05-07 10:29 | 57.57230 | -0.98194 | 36010 ft | 439 kts | 321° |
| 2026-05-07 10:30 | 57.64772 | -1.07939 | 36014 ft | 439 kts | 321° |
| 2026-05-07 10:30 | 57.69787 | -1.14445 | 36010 ft | 438 kts | 320° |
| 2026-05-07 10:31 | 57.74786 | -1.20955 | 36007 ft | 438 kts | 320° |
| 2026-05-07 10:31 | 57.79794 | -1.27502 | 35994 ft | 440 kts | 320° |
| 2026-05-07 10:32 | 57.84777 | -1.34036 | 35993 ft | 440 kts | 320° |
| 2026-05-07 10:32 | 57.89797 | -1.40639 | 35993 ft | 440 kts | 320° |
| 2026-05-07 10:33 | 57.94811 | -1.47257 | 35985 ft | 440 kts | 320° |
| 2026-05-07 10:33 | 57.99813 | -1.53883 | 35977 ft | 439 kts | 320° |
| 2026-05-07 10:34 | 58.04804 | -1.60519 | 35975 ft | 439 kts | 319° |
| 2026-05-07 10:34 | 58.09794 | -1.67177 | 35975 ft | 439 kts | 319° |
| 2026-05-07 10:35 | 58.14781 | -1.73854 | 35957 ft | 439 kts | 319° |
| 2026-05-07 10:35 | 58.19764 | -1.80547 | 35973 ft | 439 kts | 319° |
| 2026-05-07 10:36 | 58.24735 | -1.87249 | 35956 ft | 439 kts | 319° |
| 2026-05-07 10:36 | 58.29718 | -1.93992 | 35956 ft | 440 kts | 319° |
| 2026-05-07 10:37 | 58.34698 | -2.00753 | 35946 ft | 440 kts | 319° |
| 2026-05-07 10:37 | 58.39677 | -2.07537 | 35939 ft | 440 kts | 319° |
| 2026-05-07 10:38 | 58.44647 | -2.14333 | 35940 ft | 440 kts | 318° |
| 2026-05-07 10:38 | 58.49620 | -2.21156 | 35940 ft | 440 kts | 318° |
| 2026-05-07 10:39 | 58.54579 | -2.27985 | 35925 ft | 439 kts | 318° |
| 2026-05-07 10:39 | 58.59537 | -2.34838 | 35922 ft | 439 kts | 318° |
| 2026-05-07 10:40 | 58.64489 | -2.41706 | 35922 ft | 439 kts | 318° |
| 2026-05-07 10:40 | 58.69437 | -2.48595 | 35922 ft | 439 kts | 317° |
| 2026-05-07 10:41 | 58.74352 | -2.55461 | 35909 ft | 441 kts | 317° |
| 2026-05-07 10:41 | 58.79327 | -2.62439 | 35906 ft | 442 kts | 317° |
| 2026-05-07 10:42 | 58.84335 | -2.69483 | 35906 ft | 443 kts | 317° |
| 2026-05-07 10:42 | 58.89271 | -2.76453 | 35906 ft | 442 kts | 317° |
| 2026-05-07 10:43 | 58.94238 | -2.83491 | 35911 ft | 442 kts | 317° |
| 2026-05-07 10:43 | 58.99200 | -2.90550 | 35911 ft | 442 kts | 317° |
| 2026-05-07 10:44 | 59.04163 | -2.97638 | 35912 ft | 445 kts | 317° |
| 2026-05-07 10:44 | 59.09169 | -3.04818 | 35892 ft | 448 kts | 317° |
| 2026-05-07 10:45 | 59.14180 | -3.12021 | 35879 ft | 448 kts | 317° |
| 2026-05-07 10:45 | 59.19190 | -3.19249 | 35878 ft | 448 kts | 317° |
| 2026-05-07 10:46 | 59.24197 | -3.26505 | 35879 ft | 449 kts | 317° |
| 2026-05-07 10:46 | 59.29208 | -3.33795 | 35904 ft | 449 kts | 316° |
| 2026-05-07 10:47 | 59.34216 | -3.41105 | 35865 ft | 449 kts | 316° |
| 2026-05-07 10:47 | 59.39219 | -3.48437 | 35865 ft | 449 kts | 316° |
| 2026-05-07 10:48 | 59.44219 | -3.55793 | 35860 ft | 449 kts | 316° |
| 2026-05-07 10:48 | 59.49210 | -3.63163 | 35875 ft | 449 kts | 316° |
| 2026-05-07 10:49 | 59.54201 | -3.70562 | 35870 ft | 449 kts | 316° |
| 2026-05-07 10:49 | 59.59189 | -3.77983 | 35851 ft | 449 kts | 316° |
| 2026-05-07 10:50 | 59.64171 | -3.85421 | 35852 ft | 449 kts | 316° |
| 2026-05-07 10:50 | 59.69152 | -3.92873 | 35858 ft | 449 kts | 315° |
| 2026-05-07 10:51 | 59.74136 | -4.00383 | 35840 ft | 451 kts | 315° |
| 2026-05-07 10:51 | 59.79099 | -4.07895 | 35840 ft | 451 kts | 315° |
| 2026-05-07 10:52 | 59.84110 | -4.15497 | 35850 ft | 451 kts | 315° |
| 2026-05-07 10:52 | 59.89099 | -4.23091 | 35826 ft | 451 kts | 315° |
| 2026-05-07 10:53 | 59.94082 | -4.30704 | 35830 ft | 451 kts | 315° |
| 2026-05-07 10:53 | 59.99060 | -4.38343 | 35827 ft | 451 kts | 315° |
| 2026-05-07 10:54 | 60.04036 | -4.46007 | 35828 ft | 451 kts | 315° |
| 2026-05-07 10:54 | 60.08968 | -4.53634 | 35812 ft | 451 kts | 315° |
| 2026-05-07 10:55 | 60.13937 | -4.61349 | 35812 ft | 452 kts | 315° |
| 2026-05-07 10:55 | 60.18905 | -4.69093 | 35822 ft | 452 kts | 315° |
| 2026-05-07 10:56 | 60.23881 | -4.76882 | 35812 ft | 454 kts | 315° |
| 2026-05-07 10:56 | 60.28861 | -4.84704 | 35797 ft | 454 kts | 315° |
| 2026-05-07 10:57 | 60.33835 | -4.92547 | 35794 ft | 454 kts | 315° |
| 2026-05-07 10:57 | 60.38801 | -5.00410 | 35798 ft | 454 kts | 315° |
| 2026-05-07 10:58 | 60.43771 | -5.08313 | 35790 ft | 455 kts | 315° |
| 2026-05-07 10:58 | 60.48742 | -5.16246 | 35774 ft | 455 kts | 315° |
| 2026-05-07 10:59 | 60.53705 | -5.24199 | 35774 ft | 455 kts | 315° |
| 2026-05-07 10:59 | 60.58664 | -5.32180 | 35775 ft | 455 kts | 315° |
| 2026-05-07 11:00 | 60.63617 | -5.40181 | 35776 ft | 455 kts | 315° |
| 2026-05-07 11:00 | 60.68578 | -5.48232 | 35759 ft | 457 kts | 316° |
| 2026-05-07 11:01 | 60.73533 | -5.56305 | 35755 ft | 459 kts | 316° |
| 2026-05-07 11:01 | 60.78523 | -5.64462 | 35758 ft | 459 kts | 316° |
| 2026-05-07 11:02 | 60.83508 | -5.72645 | 35758 ft | 459 kts | 315° |
| 2026-05-07 11:02 | 60.88487 | -5.80855 | 35741 ft | 459 kts | 315° |
| 2026-05-07 11:03 | 60.93461 | -5.89090 | 35757 ft | 459 kts | 316° |
| 2026-05-07 11:03 | 60.98441 | -5.97371 | 35731 ft | 461 kts | 316° |
| 2026-05-07 11:04 | 61.03367 | -6.05793 | 35750 ft | 459 kts | 313° |
| 2026-05-07 11:04 | 61.08120 | -6.14594 | 35722 ft | 459 kts | 312° |
| 2026-05-07 11:05 | 61.12850 | -6.23450 | 35736 ft | 459 kts | 313° |
| 2026-05-07 11:05 | 61.17605 | -6.32290 | 35730 ft | 460 kts | 313° |
| 2026-05-07 11:06 | 61.21578 | -6.39656 | 35736 ft | 461 kts | 313° |
| 2026-05-07 11:06 | 61.26358 | -6.48539 | 35719 ft | 461 kts | 313° |
| 2026-05-07 11:07 | 61.31135 | -6.57456 | 35726 ft | 461 kts | 313° |
| 2026-05-07 11:07 | 61.35900 | -6.66395 | 35724 ft | 461 kts | 313° |
| 2026-05-07 11:08 | 61.40658 | -6.75360 | 35730 ft | 461 kts | 313° |
| 2026-05-07 11:08 | 61.45415 | -6.84361 | 35730 ft | 461 kts | 313° |
| 2026-05-07 11:09 | 61.50129 | -6.93321 | 35729 ft | 461 kts | 313° |
| 2026-05-07 11:09 | 61.54871 | -7.02369 | 35744 ft | 461 kts | 313° |
| 2026-05-07 11:10 | 61.59607 | -7.11448 | 35739 ft | 461 kts | 313° |
| 2026-05-07 11:10 | 61.64350 | -7.20581 | 35736 ft | 463 kts | 313° |
| 2026-05-07 11:11 | 61.69097 | -7.29759 | 35732 ft | 464 kts | 313° |
| 2026-05-07 11:11 | 61.73842 | -7.38972 | 35758 ft | 464 kts | 312° |
| 2026-05-07 11:12 | 61.78578 | -7.48210 | 35755 ft | 463 kts | 311° |
| 2026-05-07 11:12 | 61.83306 | -7.57472 | 35745 ft | 463 kts | 311° |
| 2026-05-07 11:13 | 61.88022 | -7.66754 | 35767 ft | 463 kts | 311° |
| 2026-05-07 11:13 | 61.92735 | -7.76068 | 35754 ft | 463 kts | 312° |
| 2026-05-07 11:14 | 61.97443 | -7.85416 | 35770 ft | 463 kts | 312° |
| 2026-05-07 11:14 | 62.02144 | -7.94780 | 35768 ft | 462 kts | 311° |
| 2026-05-07 11:15 | 62.06786 | -8.04075 | 35790 ft | 460 kts | 312° |
| 2026-05-07 11:15 | 62.11474 | -8.13510 | 35776 ft | 461 kts | 312° |
| 2026-05-07 11:16 | 62.16094 | -8.22852 | 35779 ft | 460 kts | 312° |
| 2026-05-07 11:16 | 62.20737 | -8.32281 | 35800 ft | 460 kts | 311° |
| 2026-05-07 11:17 | 62.25373 | -8.41731 | 35799 ft | 460 kts | 311° |
| 2026-05-07 11:17 | 62.30005 | -8.51213 | 35815 ft | 460 kts | 313° |
| 2026-05-07 11:18 | 62.34614 | -8.60689 | 35811 ft | 457 kts | 312° |
| 2026-05-07 11:18 | 62.39190 | -8.70142 | 35837 ft | 455 kts | 311° |
| 2026-05-07 11:19 | 62.43749 | -8.79604 | 35838 ft | 456 kts | 311° |
| 2026-05-07 11:19 | 62.48317 | -8.89130 | 35834 ft | 458 kts | 312° |
| 2026-05-07 11:20 | 62.52913 | -8.98775 | 35854 ft | 461 kts | 312° |
| 2026-05-07 11:20 | 62.57519 | -9.08444 | 35857 ft | 460 kts | 310° |
| 2026-05-07 11:21 | 62.62107 | -9.18135 | 35876 ft | 461 kts | 310° |
| 2026-05-07 11:21 | 62.66698 | -9.27891 | 35873 ft | 462 kts | 312° |
| 2026-05-07 11:22 | 62.71292 | -9.37690 | 35893 ft | 462 kts | 312° |
| 2026-05-07 11:22 | 62.75871 | -9.47494 | 35894 ft | 461 kts | 310° |
| 2026-05-07 11:23 | 62.80431 | -9.57324 | 35896 ft | 461 kts | 311° |
| 2026-05-07 11:23 | 62.84991 | -9.67178 | 35913 ft | 461 kts | 312° |
| 2026-05-07 11:24 | 62.89544 | -9.77073 | 35914 ft | 461 kts | 311° |
| 2026-05-07 11:24 | 62.94094 | -9.87013 | 35928 ft | 462 kts | 310° |
| 2026-05-07 11:25 | 62.98642 | -9.96974 | 35929 ft | 462 kts | 312° |
| 2026-05-07 11:25 | 63.03556 | -10.06190 | 35945 ft | 465 kts | 318° |
| 2026-05-07 11:26 | 63.08600 | -10.15136 | 35960 ft | 466 kts | 319° |
| 2026-05-07 11:26 | 63.13660 | -10.24046 | 35965 ft | 465 kts | 318° |
| 2026-05-07 11:27 | 63.18712 | -10.32989 | 35967 ft | 466 kts | 317° |
| 2026-05-07 11:27 | 63.23757 | -10.41983 | 35985 ft | 465 kts | 318° |
| 2026-05-07 11:28 | 63.28793 | -10.51011 | 35982 ft | 465 kts | 318° |
| 2026-05-07 11:28 | 63.33823 | -10.60060 | 35984 ft | 466 kts | 317° |
| 2026-05-07 11:29 | 63.38816 | -10.69082 | 36000 ft | 464 kts | 317° |
| 2026-05-07 11:29 | 63.43812 | -10.78176 | 36000 ft | 463 kts | 317° |
| 2026-05-07 11:30 | 63.48812 | -10.87313 | 36017 ft | 465 kts | 317° |
| 2026-05-07 11:30 | 63.53815 | -10.96478 | 36016 ft | 464 kts | 317° |
| 2026-05-07 11:31 | 63.58798 | -11.05666 | 36030 ft | 464 kts | 317° |
| 2026-05-07 11:31 | 63.63781 | -11.14899 | 36035 ft | 464 kts | 318° |
| 2026-05-07 11:32 | 63.71224 | -11.28762 | 36037 ft | 461 kts | 319° |
| 2026-05-07 11:33 | 63.76169 | -11.38037 | 36046 ft | 463 kts | 318° |
| 2026-05-07 11:33 | 63.81123 | -11.47362 | 36057 ft | 463 kts | 317° |
| 2026-05-07 11:34 | 63.86060 | -11.56690 | 36056 ft | 462 kts | 318° |
| 2026-05-07 11:34 | 63.90993 | -11.66062 | 36072 ft | 463 kts | 319° |
| 2026-05-07 11:35 | 63.95920 | -11.75472 | 36072 ft | 462 kts | 317° |
| 2026-05-07 11:35 | 64.00821 | -11.84891 | 36079 ft | 460 kts | 318° |
| 2026-05-07 11:36 | 64.05720 | -11.94331 | 36084 ft | 462 kts | 318° |
| 2026-05-07 11:36 | 64.10627 | -12.03830 | 36086 ft | 462 kts | 318° |
| 2026-05-07 11:37 | 64.15518 | -12.13353 | 36100 ft | 461 kts | 318° |
| 2026-05-07 11:37 | 64.20404 | -12.22901 | 36099 ft | 463 kts | 318° |
| 2026-05-07 11:38 | 64.25298 | -12.32518 | 36106 ft | 462 kts | 317° |
| 2026-05-07 11:38 | 64.30137 | -12.42071 | 36106 ft | 461 kts | 317° |
| 2026-05-07 11:39 | 64.35035 | -12.51791 | 36107 ft | 462 kts | 318° |
| 2026-05-07 11:39 | 64.39876 | -12.61430 | 36107 ft | 462 kts | 317° |
| 2026-05-07 11:40 | 64.44726 | -12.71145 | 36126 ft | 460 kts | 318° |
| 2026-05-07 11:40 | 64.49561 | -12.80887 | 36124 ft | 461 kts | 317° |
| 2026-05-07 11:41 | 64.54397 | -12.90676 | 36121 ft | 461 kts | 317° |
| 2026-05-07 11:41 | 64.59210 | -13.00455 | 36129 ft | 459 kts | 318° |
| 2026-05-07 11:42 | 64.64022 | -13.10278 | 36133 ft | 461 kts | 318° |
| 2026-05-07 11:42 | 64.68846 | -13.20176 | 36141 ft | 461 kts | 317° |
| 2026-05-07 11:43 | 64.73645 | -13.30080 | 36140 ft | 459 kts | 318° |
| 2026-05-07 11:43 | 64.78434 | -13.40010 | 36150 ft | 460 kts | 318° |
| 2026-05-07 11:44 | 64.83229 | -13.49997 | 36154 ft | 460 kts | 317° |
| 2026-05-07 11:44 | 64.88004 | -13.59996 | 36163 ft | 458 kts | 318° |
| 2026-05-07 11:45 | 64.92766 | -13.70014 | 36165 ft | 460 kts | 317° |
| 2026-05-07 11:45 | 64.97539 | -13.80106 | 36163 ft | 460 kts | 317° |
| 2026-05-07 11:46 | 65.02291 | -13.90207 | 36174 ft | 458 kts | 318° |
| 2026-05-07 11:46 | 65.07020 | -14.00315 | 36179 ft | 459 kts | 317° |
| 2026-05-07 11:47 | 65.11771 | -14.10513 | 36186 ft | 460 kts | 317° |
| 2026-05-07 11:47 | 65.16500 | -14.20713 | 36182 ft | 458 kts | 318° |
| 2026-05-07 11:48 | 65.21203 | -14.30911 | 36184 ft | 458 kts | 317° |
| 2026-05-07 11:48 | 65.25921 | -14.41197 | 36189 ft | 459 kts | 318° |
| 2026-05-07 11:49 | 65.30581 | -14.51406 | 36184 ft | 456 kts | 318° |
| 2026-05-07 11:49 | 65.35239 | -14.61656 | 36188 ft | 456 kts | 318° |
| 2026-05-07 11:50 | 65.39909 | -14.71986 | 36218 ft | 457 kts | 318° |
| 2026-05-07 11:50 | 65.44572 | -14.82355 | 36229 ft | 456 kts | 318° |
| 2026-05-07 11:51 | 65.49212 | -14.92725 | 36232 ft | 456 kts | 317° |
| 2026-05-07 11:51 | 65.53860 | -15.03170 | 36239 ft | 458 kts | 317° |
| 2026-05-07 11:52 | 65.58514 | -15.13671 | 36241 ft | 457 kts | 318° |
| 2026-05-07 11:52 | 65.63141 | -15.24171 | 36240 ft | 455 kts | 317° |
| 2026-05-07 11:53 | 65.67756 | -15.34705 | 36243 ft | 457 kts | 317° |
| 2026-05-07 11:53 | 65.72389 | -15.45333 | 36238 ft | 457 kts | 317° |
| 2026-05-07 11:54 | 65.77003 | -15.55967 | 36252 ft | 456 kts | 317° |
| 2026-05-07 11:54 | 65.81614 | -15.66645 | 36252 ft | 458 kts | 317° |
| 2026-05-07 11:55 | 65.85449 | -15.75573 | 36250 ft | 459 kts | 317° |
| 2026-05-07 11:55 | 65.90064 | -15.86368 | 36250 ft | 459 kts | 317° |
| 2026-05-07 11:56 | 65.94663 | -15.97185 | 36259 ft | 459 kts | 317° |
| 2026-05-07 11:56 | 65.99262 | -16.08054 | 36257 ft | 459 kts | 317° |
| 2026-05-07 11:57 | 66.03853 | -16.18963 | 36257 ft | 459 kts | 317° |
| 2026-05-07 11:57 | 66.08434 | -16.29907 | 36258 ft | 458 kts | 317° |
| 2026-05-07 11:58 | 66.12999 | -16.40872 | 36261 ft | 458 kts | 317° |
| 2026-05-07 11:58 | 66.17557 | -16.51875 | 36268 ft | 458 kts | 317° |
| 2026-05-07 11:59 | 66.22109 | -16.62924 | 36271 ft | 458 kts | 317° |
| 2026-05-07 11:59 | 66.26649 | -16.74004 | 36273 ft | 458 kts | 316° |
| 2026-05-07 12:00 | 66.31186 | -16.85135 | 36268 ft | 458 kts | 317° |
| 2026-05-07 12:00 | 66.35708 | -16.96288 | 36279 ft | 457 kts | 316° |
| 2026-05-07 12:01 | 66.40218 | -17.07472 | 36277 ft | 457 kts | 316° |
| 2026-05-07 12:01 | 66.44719 | -17.18695 | 36278 ft | 457 kts | 316° |
| 2026-05-07 12:02 | 66.49186 | -17.29892 | 36283 ft | 457 kts | 316° |
| 2026-05-07 12:02 | 66.53672 | -17.41198 | 36282 ft | 457 kts | 316° |
| 2026-05-07 12:03 | 66.58152 | -17.52550 | 36293 ft | 457 kts | 316° |
| 2026-05-07 12:03 | 66.62622 | -17.63939 | 36293 ft | 457 kts | 316° |
| 2026-05-07 12:04 | 66.67083 | -17.75366 | 36288 ft | 457 kts | 316° |
| 2026-05-07 12:04 | 66.71537 | -17.86838 | 36272 ft | 457 kts | 316° |
| 2026-05-07 12:05 | 66.75979 | -17.98344 | 36273 ft | 457 kts | 316° |
| 2026-05-07 12:05 | 66.80416 | -18.09900 | 36291 ft | 457 kts | 316° |
| 2026-05-07 12:06 | 66.84846 | -18.21501 | 36288 ft | 457 kts | 316° |
| 2026-05-07 12:06 | 66.89258 | -18.33119 | 36300 ft | 457 kts | 315° |
| 2026-05-07 12:07 | 66.93664 | -18.44786 | 36300 ft | 457 kts | 315° |
| 2026-05-07 12:07 | 66.98058 | -18.56484 | 36301 ft | 457 kts | 315° |
| 2026-05-07 12:08 | 67.02443 | -18.68226 | 36302 ft | 457 kts | 315° |
| 2026-05-07 12:08 | 67.06821 | -18.80014 | 36303 ft | 457 kts | 315° |
| 2026-05-07 12:09 | 67.11191 | -18.91845 | 36304 ft | 456 kts | 315° |
| 2026-05-07 12:09 | 67.15548 | -19.03709 | 36306 ft | 456 kts | 315° |
| 2026-05-07 12:10 | 67.19897 | -19.15619 | 36308 ft | 456 kts | 315° |
| 2026-05-07 12:10 | 67.24235 | -19.27563 | 36308 ft | 456 kts | 315° |
| 2026-05-07 12:11 | 67.28563 | -19.39551 | 36312 ft | 456 kts | 315° |
| 2026-05-07 12:11 | 67.32881 | -19.51578 | 36317 ft | 456 kts | 315° |
| 2026-05-07 12:12 | 67.37194 | -19.63659 | 36316 ft | 456 kts | 314° |
| 2026-05-07 12:12 | 67.41497 | -19.75779 | 36317 ft | 456 kts | 314° |
| 2026-05-07 12:13 | 67.45787 | -19.87935 | 36319 ft | 456 kts | 314° |
| 2026-05-07 12:13 | 67.50043 | -20.00064 | 36319 ft | 456 kts | 314° |
| 2026-05-07 12:14 | 67.54187 | -20.12771 | 36321 ft | 457 kts | 310° |
| 2026-05-07 12:14 | 67.58098 | -20.25754 | 36323 ft | 457 kts | 310° |
| 2026-05-07 12:15 | 67.62067 | -20.38921 | 36322 ft | 457 kts | 310° |
| 2026-05-07 12:15 | 67.66028 | -20.51951 | 36324 ft | 457 kts | 310° |
| 2026-05-07 12:16 | 67.69966 | -20.64910 | 36326 ft | 457 kts | 310° |
| 2026-05-07 12:16 | 67.73922 | -20.78001 | 36325 ft | 456 kts | 310° |
| 2026-05-07 12:17 | 67.77866 | -20.91139 | 36324 ft | 457 kts | 310° |
| 2026-05-07 12:17 | 67.81798 | -21.04322 | 36324 ft | 457 kts | 310° |
| 2026-05-07 12:18 | 67.85721 | -21.17554 | 36323 ft | 456 kts | 310° |
| 2026-05-07 12:18 | 67.89619 | -21.30783 | 36325 ft | 455 kts | 310° |
| 2026-05-07 12:19 | 67.93508 | -21.44060 | 36324 ft | 455 kts | 310° |
| 2026-05-07 12:19 | 67.97384 | -21.57375 | 36325 ft | 455 kts | 310° |
| 2026-05-07 12:20 | 68.01249 | -21.70734 | 36325 ft | 455 kts | 310° |
| 2026-05-07 12:20 | 68.05106 | -21.84147 | 36325 ft | 455 kts | 310° |
| 2026-05-07 12:21 | 68.08952 | -21.97606 | 36321 ft | 455 kts | 310° |
| 2026-05-07 12:21 | 68.12782 | -22.11094 | 36325 ft | 455 kts | 309° |
| 2026-05-07 12:22 | 68.16601 | -22.24624 | 36326 ft | 455 kts | 309° |
| 2026-05-07 12:22 | 68.20410 | -22.38204 | 36325 ft | 455 kts | 309° |
| 2026-05-07 12:23 | 68.24209 | -22.51831 | 36327 ft | 455 kts | 309° |
| 2026-05-07 12:23 | 68.27995 | -22.65497 | 36308 ft | 455 kts | 309° |
| 2026-05-07 12:24 | 68.31764 | -22.79192 | 36325 ft | 454 kts | 309° |
| 2026-05-07 12:24 | 68.35518 | -22.92914 | 36330 ft | 453 kts | 309° |
| 2026-05-07 12:25 | 68.39228 | -23.06564 | 36319 ft | 453 kts | 309° |
| 2026-05-07 12:25 | 68.42954 | -23.20353 | 36328 ft | 453 kts | 309° |
| 2026-05-07 12:26 | 68.46666 | -23.34182 | 36325 ft | 453 kts | 308° |
| 2026-05-07 12:26 | 68.50371 | -23.48074 | 36327 ft | 453 kts | 308° |
| 2026-05-07 12:27 | 68.54064 | -23.62009 | 36325 ft | 453 kts | 308° |
| 2026-05-07 12:27 | 68.57743 | -23.75982 | 36320 ft | 452 kts | 308° |
| 2026-05-07 12:28 | 68.61403 | -23.89972 | 36332 ft | 452 kts | 308° |
| 2026-05-07 12:28 | 68.65051 | -24.04005 | 36332 ft | 452 kts | 308° |
| 2026-05-07 12:29 | 68.68691 | -24.18098 | 36326 ft | 452 kts | 308° |
| 2026-05-07 12:29 | 68.72312 | -24.32210 | 36329 ft | 451 kts | 308° |
| 2026-05-07 12:30 | 68.75913 | -24.46336 | 36339 ft | 450 kts | 308° |
| 2026-05-07 12:30 | 68.79498 | -24.60491 | 36333 ft | 449 kts | 308° |
| 2026-05-07 12:31 | 68.83065 | -24.74664 | 36338 ft | 449 kts | 308° |
| 2026-05-07 12:31 | 68.86616 | -24.88868 | 36339 ft | 449 kts | 307° |
| 2026-05-07 12:32 | 68.90157 | -25.03121 | 36337 ft | 449 kts | 307° |
| 2026-05-07 12:32 | 68.93687 | -25.17430 | 36341 ft | 449 kts | 307° |
| 2026-05-07 12:33 | 68.98959 | -25.38973 | 36341 ft | 449 kts | 307° |
| 2026-05-07 12:33 | 69.02458 | -25.53391 | 36339 ft | 448 kts | 307° |
| 2026-05-07 12:34 | 69.05914 | -25.67727 | 36338 ft | 448 kts | 307° |
| 2026-05-07 12:34 | 69.09382 | -25.82205 | 36337 ft | 448 kts | 307° |
| 2026-05-07 12:35 | 69.12835 | -25.96720 | 36329 ft | 447 kts | 307° |
| 2026-05-07 12:35 | 69.16269 | -26.11253 | 36332 ft | 446 kts | 307° |
| 2026-05-07 12:36 | 69.19687 | -26.25817 | 36333 ft | 446 kts | 306° |
| 2026-05-07 12:36 | 69.23095 | -26.40434 | 36317 ft | 446 kts | 306° |
| 2026-05-07 12:37 | 69.26489 | -26.55086 | 36316 ft | 446 kts | 306° |
| 2026-05-07 12:37 | 69.29872 | -26.69798 | 36312 ft | 446 kts | 306° |
| 2026-05-07 12:38 | 69.33242 | -26.84552 | 36327 ft | 447 kts | 306° |
| 2026-05-07 12:38 | 69.36599 | -26.99348 | 36310 ft | 447 kts | 306° |
| 2026-05-07 12:39 | 69.39945 | -27.14199 | 36294 ft | 447 kts | 306° |
| 2026-05-07 12:39 | 69.43279 | -27.29096 | 36308 ft | 447 kts | 306° |
| 2026-05-07 12:40 | 69.46598 | -27.44036 | 36296 ft | 446 kts | 306° |
| 2026-05-07 12:40 | 69.49897 | -27.58987 | 36299 ft | 445 kts | 305° |
| 2026-05-07 12:41 | 69.53157 | -27.73858 | 36274 ft | 444 kts | 306° |
| 2026-05-07 12:41 | 69.56416 | -27.88836 | 36277 ft | 443 kts | 305° |
| 2026-05-07 12:42 | 69.59660 | -28.03844 | 36283 ft | 443 kts | 305° |
| 2026-05-07 12:42 | 69.62366 | -28.16445 | 36286 ft | 443 kts | 305° |
| 2026-05-07 12:43 | 69.65565 | -28.31443 | 36282 ft | 443 kts | 305° |
| 2026-05-07 12:43 | 69.68763 | -28.46538 | 36274 ft | 441 kts | 305° |
| 2026-05-07 12:44 | 69.71938 | -28.61634 | 36283 ft | 441 kts | 305° |
| 2026-05-07 12:44 | 69.75102 | -28.76780 | 36282 ft | 441 kts | 304° |
| 2026-05-07 12:45 | 69.78256 | -28.91983 | 36280 ft | 441 kts | 304° |
| 2026-05-07 12:45 | 69.81395 | -29.07229 | 36281 ft | 441 kts | 304° |
| 2026-05-07 12:46 | 69.84520 | -29.22515 | 36283 ft | 441 kts | 304° |
| 2026-05-07 12:46 | 69.87632 | -29.37851 | 36311 ft | 440 kts | 304° |
| 2026-05-07 12:47 | 69.90717 | -29.53159 | 36308 ft | 438 kts | 304° |
| 2026-05-07 12:47 | 69.93770 | -29.68426 | 36344 ft | 435 kts | 304° |
| 2026-05-07 12:48 | 69.96804 | -29.83700 | 36372 ft | 435 kts | 304° |
| 2026-05-07 12:48 | 69.99873 | -29.98945 | 36547 ft | 435 kts | 308° |
| 2026-05-07 12:49 | 70.01602 | -30.06206 | 36666 ft | 435 kts | 309° |
| 2026-05-07 12:49 | 70.03361 | -30.13409 | 36792 ft | 436 kts | 309° |
| 2026-05-07 12:49 | 70.05137 | -30.20601 | 36922 ft | 436 kts | 309° |
| 2026-05-07 12:49 | 70.06924 | -30.27806 | 37050 ft | 437 kts | 309° |
| 2026-05-07 12:50 | 70.08704 | -30.34994 | 37291 ft | 434 kts | 309° |
| 2026-05-07 12:50 | 70.10476 | -30.42167 | 37434 ft | 435 kts | 309° |
| 2026-05-07 12:50 | 70.14021 | -30.56612 | 37639 ft | 436 kts | 309° |
| 2026-05-07 12:51 | 70.15793 | -30.63880 | 37760 ft | 437 kts | 309° |
| 2026-05-07 12:51 | 70.17562 | -30.71161 | 37838 ft | 438 kts | 309° |
| 2026-05-07 12:51 | 70.19331 | -30.78471 | 37967 ft | 438 kts | 309° |
| 2026-05-07 12:51 | 70.21097 | -30.85796 | 38050 ft | 439 kts | 308° |
| 2026-05-07 12:52 | 70.24628 | -31.00512 | 38252 ft | 440 kts | 308° |
| 2026-05-07 12:52 | 70.28167 | -31.15364 | 38286 ft | 442 kts | 308° |
| 2026-05-07 12:53 | 70.31685 | -31.30235 | 38292 ft | 440 kts | 308° |
| 2026-05-07 12:53 | 70.35182 | -31.45117 | 38292 ft | 439 kts | 308° |
| 2026-05-07 12:54 | 70.38641 | -31.59933 | 38265 ft | 439 kts | 308° |
| 2026-05-07 12:54 | 70.42105 | -31.74877 | 38300 ft | 437 kts | 308° |
| 2026-05-07 12:55 | 70.45544 | -31.89817 | 38304 ft | 437 kts | 307° |
| 2026-05-07 12:55 | 70.48969 | -32.04798 | 38329 ft | 437 kts | 307° |
| 2026-05-07 12:56 | 70.52383 | -32.19834 | 38329 ft | 436 kts | 307° |
| 2026-05-07 12:56 | 70.55771 | -32.34865 | 38345 ft | 435 kts | 307° |
| 2026-05-07 12:57 | 70.59146 | -32.49942 | 38345 ft | 435 kts | 307° |
| 2026-05-07 12:57 | 70.62508 | -32.65068 | 38343 ft | 435 kts | 307° |
| 2026-05-07 12:58 | 70.65858 | -32.80243 | 38359 ft | 435 kts | 307° |
| 2026-05-07 12:58 | 70.69196 | -32.95474 | 38358 ft | 435 kts | 306° |
| 2026-05-07 12:59 | 70.72523 | -33.10762 | 38354 ft | 435 kts | 306° |
| 2026-05-07 12:59 | 70.75828 | -33.26064 | 38360 ft | 434 kts | 306° |
| 2026-05-07 13:00 | 70.79119 | -33.41404 | 38363 ft | 434 kts | 306° |
| 2026-05-07 13:00 | 70.82394 | -33.56780 | 38362 ft | 434 kts | 306° |
| 2026-05-07 13:01 | 70.85660 | -33.72224 | 38360 ft | 434 kts | 306° |
| 2026-05-07 13:01 | 70.88911 | -33.87711 | 38360 ft | 434 kts | 306° |
| 2026-05-07 13:02 | 70.92151 | -34.03259 | 38343 ft | 433 kts | 306° |
| 2026-05-07 13:02 | 70.95366 | -34.18799 | 38359 ft | 432 kts | 305° |
| 2026-05-07 13:03 | 70.98560 | -34.34354 | 38359 ft | 431 kts | 305° |
| 2026-05-07 13:03 | 71.01743 | -34.49967 | 38357 ft | 431 kts | 305° |
| 2026-05-07 13:04 | 71.04912 | -34.65625 | 38354 ft | 431 kts | 305° |
| 2026-05-07 13:04 | 71.08068 | -34.81334 | 38356 ft | 431 kts | 305° |
| 2026-05-07 13:05 | 71.11212 | -34.97101 | 38354 ft | 431 kts | 304° |
| 2026-05-07 13:05 | 71.14341 | -35.12910 | 38354 ft | 431 kts | 304° |
| 2026-05-07 13:06 | 71.17454 | -35.28756 | 38355 ft | 431 kts | 304° |
| 2026-05-07 13:06 | 71.20550 | -35.44632 | 38343 ft | 431 kts | 304° |
| 2026-05-07 13:07 | 71.23634 | -35.60564 | 38342 ft | 431 kts | 304° |
| 2026-05-07 13:07 | 71.26703 | -35.76545 | 38341 ft | 431 kts | 304° |
| 2026-05-07 13:08 | 71.29763 | -35.92595 | 38342 ft | 431 kts | 303° |
| 2026-05-07 13:08 | 71.32806 | -36.08683 | 38341 ft | 431 kts | 303° |
| 2026-05-07 13:09 | 71.35836 | -36.24824 | 38341 ft | 431 kts | 303° |
| 2026-05-07 13:09 | 71.38851 | -36.41010 | 38338 ft | 431 kts | 303° |
| 2026-05-07 13:10 | 71.41855 | -36.57259 | 38316 ft | 430 kts | 303° |
| 2026-05-07 13:10 | 71.44807 | -36.73360 | 38331 ft | 428 kts | 303° |
| 2026-05-07 13:11 | 71.47760 | -36.89580 | 38328 ft | 428 kts | 303° |
| 2026-05-07 13:11 | 71.50701 | -37.05866 | 38338 ft | 428 kts | 302° |
| 2026-05-07 13:12 | 71.53621 | -37.22158 | 38324 ft | 426 kts | 302° |
| 2026-05-07 13:12 | 71.56515 | -37.38438 | 38325 ft | 425 kts | 302° |
| 2026-05-07 13:13 | 71.59390 | -37.54734 | 38325 ft | 425 kts | 302° |
| 2026-05-07 13:13 | 71.62252 | -37.71086 | 38326 ft | 425 kts | 302° |
| 2026-05-07 13:14 | 71.65102 | -37.87497 | 38324 ft | 425 kts | 301° |
| 2026-05-07 13:14 | 71.67938 | -38.03957 | 38323 ft | 425 kts | 301° |
| 2026-05-07 13:15 | 71.70761 | -38.20474 | 38317 ft | 425 kts | 301° |
| 2026-05-07 13:15 | 71.73565 | -38.37014 | 38319 ft | 424 kts | 301° |
| 2026-05-07 13:16 | 71.76350 | -38.53575 | 38330 ft | 424 kts | 301° |
| 2026-05-07 13:16 | 71.79122 | -38.70188 | 38317 ft | 424 kts | 301° |
| 2026-05-07 13:17 | 71.81882 | -38.86866 | 38341 ft | 424 kts | 300° |
| 2026-05-07 13:17 | 71.84626 | -39.03582 | 38325 ft | 424 kts | 300° |
| 2026-05-07 13:18 | 71.87356 | -39.20353 | 38335 ft | 424 kts | 300° |
| 2026-05-07 13:18 | 71.90054 | -39.37064 | 38313 ft | 424 kts | 300° |
| 2026-05-07 13:19 | 71.92751 | -39.53907 | 38316 ft | 423 kts | 300° |
| 2026-05-07 13:19 | 71.95432 | -39.70791 | 38322 ft | 423 kts | 299° |
| 2026-05-07 13:20 | 71.98101 | -39.87734 | 38302 ft | 423 kts | 299° |
| 2026-05-07 13:20 | 72.00505 | -40.05113 | 38322 ft | 425 kts | 293° |
| 2026-05-07 13:21 | 72.02473 | -40.23189 | 38300 ft | 426 kts | 292° |
| 2026-05-07 13:21 | 72.04358 | -40.41401 | 38299 ft | 426 kts | 291° |
| 2026-05-07 13:22 | 72.06214 | -40.59623 | 38313 ft | 425 kts | 291° |
| 2026-05-07 13:22 | 72.08056 | -40.77830 | 38288 ft | 424 kts | 291° |
| 2026-05-07 13:23 | 72.09886 | -40.96076 | 38273 ft | 425 kts | 291° |
| 2026-05-07 13:23 | 72.11699 | -41.14345 | 38285 ft | 425 kts | 290° |
| 2026-05-07 13:24 | 72.13495 | -41.32661 | 38262 ft | 425 kts | 290° |
| 2026-05-07 13:24 | 72.15274 | -41.51006 | 38224 ft | 425 kts | 290° |
| 2026-05-07 13:25 | 72.17029 | -41.69327 | 38254 ft | 422 kts | 290° |
| 2026-05-07 13:25 | 72.18758 | -41.87597 | 38246 ft | 421 kts | 289° |
| 2026-05-07 13:26 | 72.20469 | -42.05864 | 38246 ft | 420 kts | 289° |
| 2026-05-07 13:26 | 72.22162 | -42.24168 | 38246 ft | 421 kts | 289° |
| 2026-05-07 13:27 | 72.23839 | -42.42513 | 38235 ft | 421 kts | 289° |
| 2026-05-07 13:27 | 72.25498 | -42.60879 | 38236 ft | 421 kts | 289° |
| 2026-05-07 13:28 | 72.27130 | -42.79177 | 38230 ft | 421 kts | 289° |
| 2026-05-07 13:28 | 72.28756 | -42.97625 | 38230 ft | 421 kts | 288° |
| 2026-05-07 13:29 | 72.30363 | -43.16097 | 38227 ft | 421 kts | 288° |
| 2026-05-07 13:29 | 72.31697 | -43.31601 | 38219 ft | 420 kts | 288° |
| 2026-05-07 13:30 | 72.33271 | -43.50111 | 38221 ft | 420 kts | 288° |
| 2026-05-07 13:30 | 72.34829 | -43.68657 | 38222 ft | 420 kts | 288° |
| 2026-05-07 13:31 | 72.36357 | -43.87096 | 38206 ft | 420 kts | 287° |
| 2026-05-07 13:31 | 72.37876 | -44.05664 | 38208 ft | 419 kts | 287° |
| 2026-05-07 13:32 | 72.39377 | -44.24253 | 38209 ft | 419 kts | 287° |
| 2026-05-07 13:32 | 72.40860 | -44.42862 | 38203 ft | 419 kts | 287° |
| 2026-05-07 13:33 | 72.42324 | -44.61483 | 38203 ft | 418 kts | 286° |
| 2026-05-07 13:33 | 72.43770 | -44.80135 | 38203 ft | 418 kts | 286° |
| 2026-05-07 13:34 | 72.45907 | -45.08159 | 38195 ft | 418 kts | 286° |
| 2026-05-07 13:35 | 72.47310 | -45.26886 | 38195 ft | 418 kts | 285° |
| 2026-05-07 13:35 | 72.48695 | -45.45640 | 38195 ft | 419 kts | 285° |
| 2026-05-07 13:36 | 72.50064 | -45.64442 | 38190 ft | 419 kts | 285° |
| 2026-05-07 13:36 | 72.51413 | -45.83254 | 38190 ft | 418 kts | 285° |
| 2026-05-07 13:37 | 72.52746 | -46.02098 | 38181 ft | 418 kts | 285° |
| 2026-05-07 13:37 | 72.54060 | -46.20965 | 38186 ft | 419 kts | 284° |
| 2026-05-07 13:38 | 72.55356 | -46.39855 | 38182 ft | 418 kts | 284° |
| 2026-05-07 13:38 | 72.56634 | -46.58770 | 38179 ft | 418 kts | 284° |
| 2026-05-07 13:39 | 72.57895 | -46.77717 | 38183 ft | 418 kts | 284° |
| 2026-05-07 13:39 | 72.59137 | -46.96680 | 38175 ft | 418 kts | 284° |
| 2026-05-07 13:40 | 72.60363 | -47.15688 | 38170 ft | 418 kts | 283° |
| 2026-05-07 13:40 | 72.61561 | -47.34585 | 38172 ft | 419 kts | 283° |
| 2026-05-07 13:41 | 72.62750 | -47.53643 | 38184 ft | 419 kts | 283° |
| 2026-05-07 13:41 | 72.63921 | -47.72719 | 38162 ft | 419 kts | 283° |
| 2026-05-07 13:42 | 72.65075 | -47.91833 | 38160 ft | 419 kts | 283° |
| 2026-05-07 13:42 | 72.66210 | -48.10969 | 38168 ft | 419 kts | 283° |
| 2026-05-07 13:43 | 72.67327 | -48.30129 | 38156 ft | 419 kts | 282° |
| 2026-05-07 13:43 | 72.68425 | -48.49303 | 38130 ft | 419 kts | 282° |
| 2026-05-07 13:44 | 72.69507 | -48.68530 | 38156 ft | 419 kts | 282° |
| 2026-05-07 13:44 | 72.70570 | -48.87778 | 38154 ft | 419 kts | 282° |
| 2026-05-07 13:45 | 72.71615 | -49.07049 | 38158 ft | 419 kts | 282° |
| 2026-05-07 13:45 | 72.72641 | -49.26343 | 38155 ft | 419 kts | 282° |
| 2026-05-07 13:46 | 72.73648 | -49.45642 | 38157 ft | 419 kts | 281° |
| 2026-05-07 13:46 | 72.74637 | -49.64977 | 38158 ft | 419 kts | 281° |
| 2026-05-07 13:47 | 72.75608 | -49.84333 | 38165 ft | 419 kts | 281° |
| 2026-05-07 13:47 | 72.76562 | -50.03726 | 38156 ft | 419 kts | 281° |
| 2026-05-07 13:48 | 72.77496 | -50.23133 | 38156 ft | 419 kts | 281° |
| 2026-05-07 13:48 | 72.78411 | -50.42551 | 38157 ft | 419 kts | 280° |
| 2026-05-07 13:49 | 72.79301 | -50.61847 | 38152 ft | 419 kts | 280° |
| 2026-05-07 13:49 | 72.80178 | -50.81293 | 38154 ft | 419 kts | 280° |
| 2026-05-07 13:50 | 72.81038 | -51.00786 | 38158 ft | 419 kts | 280° |
| 2026-05-07 13:50 | 72.81879 | -51.20295 | 38159 ft | 420 kts | 279° |
| 2026-05-07 13:51 | 72.82702 | -51.39837 | 38162 ft | 419 kts | 279° |
| 2026-05-07 13:51 | 72.83506 | -51.59392 | 38158 ft | 419 kts | 279° |
| 2026-05-07 13:52 | 72.84291 | -51.78948 | 38158 ft | 419 kts | 279° |
| 2026-05-07 13:52 | 72.85057 | -51.98534 | 38166 ft | 419 kts | 279° |
| 2026-05-07 13:53 | 72.85804 | -52.18136 | 38166 ft | 419 kts | 278° |
| 2026-05-07 13:53 | 72.86533 | -52.37757 | 38164 ft | 419 kts | 278° |
| 2026-05-07 13:54 | 72.87243 | -52.57400 | 38165 ft | 419 kts | 278° |
| 2026-05-07 13:54 | 72.87933 | -52.77039 | 38166 ft | 419 kts | 278° |
| 2026-05-07 13:55 | 72.88604 | -52.96717 | 38150 ft | 419 kts | 278° |
| 2026-05-07 13:55 | 72.89257 | -53.16395 | 38152 ft | 419 kts | 277° |
| 2026-05-07 13:56 | 72.89890 | -53.36079 | 38141 ft | 419 kts | 277° |
| 2026-05-07 13:56 | 72.90506 | -53.55819 | 38155 ft | 420 kts | 277° |
| 2026-05-07 13:57 | 72.91102 | -53.75584 | 38152 ft | 420 kts | 277° |
| 2026-05-07 13:57 | 72.91680 | -53.95361 | 38162 ft | 420 kts | 277° |
| 2026-05-07 13:58 | 72.92238 | -54.15140 | 38163 ft | 420 kts | 276° |
| 2026-05-07 13:58 | 72.92777 | -54.34952 | 38161 ft | 421 kts | 276° |
| 2026-05-07 13:59 | 72.93295 | -54.54662 | 38168 ft | 421 kts | 276° |
| 2026-05-07 13:59 | 72.93796 | -54.74508 | 38169 ft | 421 kts | 276° |
| 2026-05-07 14:00 | 72.94277 | -54.94356 | 38168 ft | 421 kts | 276° |
| 2026-05-07 14:00 | 72.94740 | -55.14222 | 38174 ft | 421 kts | 276° |
| 2026-05-07 14:01 | 72.95183 | -55.34108 | 38169 ft | 421 kts | 276° |
| 2026-05-07 14:01 | 72.95607 | -55.54003 | 38171 ft | 421 kts | 275° |
| 2026-05-07 14:02 | 72.96012 | -55.73899 | 38173 ft | 421 kts | 275° |
| 2026-05-07 14:02 | 72.96398 | -55.93852 | 38170 ft | 423 kts | 275° |
| 2026-05-07 14:03 | 72.96767 | -56.13899 | 38166 ft | 424 kts | 275° |
| 2026-05-07 14:03 | 72.97115 | -56.33961 | 38175 ft | 424 kts | 274° |
| 2026-05-07 14:04 | 72.97443 | -56.54016 | 38174 ft | 424 kts | 274° |
| 2026-05-07 14:04 | 72.97753 | -56.74090 | 38177 ft | 424 kts | 274° |
| 2026-05-07 14:05 | 72.98043 | -56.94179 | 38180 ft | 424 kts | 274° |
| 2026-05-07 14:05 | 72.98313 | -57.14269 | 38180 ft | 423 kts | 274° |
| 2026-05-07 14:06 | 72.98563 | -57.34352 | 38182 ft | 423 kts | 274° |
| 2026-05-07 14:06 | 72.98793 | -57.54426 | 38181 ft | 423 kts | 273° |
| 2026-05-07 14:07 | 72.99003 | -57.74503 | 38180 ft | 423 kts | 273° |
| 2026-05-07 14:07 | 72.99194 | -57.94598 | 38187 ft | 423 kts | 273° |
| 2026-05-07 14:08 | 72.99365 | -58.14696 | 38186 ft | 423 kts | 273° |
| 2026-05-07 14:08 | 72.99517 | -58.34799 | 38188 ft | 424 kts | 272° |
| 2026-05-07 14:09 | 72.99649 | -58.55013 | 38200 ft | 426 kts | 272° |
| 2026-05-07 14:09 | 72.99762 | -58.75259 | 38190 ft | 426 kts | 272° |
| 2026-05-07 14:10 | 72.99854 | -58.95358 | 38191 ft | 426 kts | 272° |
| 2026-05-07 14:10 | 72.99926 | -59.15610 | 38195 ft | 426 kts | 271° |
| 2026-05-07 14:11 | 72.99979 | -59.35848 | 38193 ft | 426 kts | 271° |
| 2026-05-07 14:11 | 73.00012 | -59.56091 | 38200 ft | 426 kts | 271° |
| 2026-05-07 14:12 | 73.00024 | -59.76341 | 38196 ft | 426 kts | 271° |
| 2026-05-07 14:12 | 73.00017 | -59.96605 | 38194 ft | 426 kts | 271° |
| 2026-05-07 14:13 | 72.99797 | -60.16853 | 38198 ft | 427 kts | 266° |
| 2026-05-07 14:13 | 72.99188 | -60.37049 | 38196 ft | 428 kts | 265° |
| 2026-05-07 14:14 | 72.98557 | -60.57243 | 38197 ft | 427 kts | 265° |
| 2026-05-07 14:14 | 72.97967 | -60.77454 | 38193 ft | 429 kts | 265° |
| 2026-05-07 14:15 | 72.97383 | -60.97797 | 38202 ft | 432 kts | 265° |
| 2026-05-07 14:15 | 72.96781 | -61.18183 | 38200 ft | 432 kts | 265° |
| 2026-05-07 14:16 | 72.96156 | -61.38555 | 38198 ft | 432 kts | 265° |
| 2026-05-07 14:16 | 72.95510 | -61.58902 | 38206 ft | 432 kts | 265° |
| 2026-05-07 14:17 | 72.94956 | -61.75813 | 38203 ft | 432 kts | 265° |
| 2026-05-07 14:17 | 72.94272 | -61.96136 | 38198 ft | 432 kts | 264° |
| 2026-05-07 14:18 | 72.93567 | -62.16471 | 38207 ft | 432 kts | 264° |
| 2026-05-07 14:18 | 72.92842 | -62.36775 | 38203 ft | 432 kts | 264° |
| 2026-05-07 14:19 | 72.92096 | -62.57070 | 38200 ft | 432 kts | 264° |
| 2026-05-07 14:19 | 72.91331 | -62.77347 | 38203 ft | 432 kts | 264° |
| 2026-05-07 14:20 | 72.90545 | -62.97612 | 38209 ft | 432 kts | 263° |
| 2026-05-07 14:20 | 72.89739 | -63.17854 | 38209 ft | 432 kts | 263° |
| 2026-05-07 14:21 | 72.88913 | -63.38084 | 38205 ft | 432 kts | 263° |
| 2026-05-07 14:21 | 72.88066 | -63.58291 | 38206 ft | 432 kts | 263° |
| 2026-05-07 14:22 | 72.87200 | -63.78480 | 38203 ft | 432 kts | 263° |
| 2026-05-07 14:22 | 72.86313 | -63.98658 | 38205 ft | 433 kts | 263° |
| 2026-05-07 14:23 | 72.85407 | -64.18810 | 38196 ft | 433 kts | 262° |
| 2026-05-07 14:23 | 72.84480 | -64.38952 | 38206 ft | 433 kts | 262° |
| 2026-05-07 14:24 | 72.83534 | -64.59069 | 38195 ft | 432 kts | 262° |
| 2026-05-07 14:24 | 72.82568 | -64.79147 | 38201 ft | 432 kts | 262° |
| 2026-05-07 14:25 | 72.81582 | -64.99203 | 38190 ft | 433 kts | 261° |
| 2026-05-07 14:25 | 72.80577 | -65.19252 | 38200 ft | 437 kts | 261° |
| 2026-05-07 14:26 | 72.79540 | -65.39491 | 38200 ft | 437 kts | 261° |
| 2026-05-07 14:26 | 72.78483 | -65.59698 | 38203 ft | 437 kts | 261° |
| 2026-05-07 14:27 | 72.77406 | -65.79889 | 38199 ft | 437 kts | 261° |
| 2026-05-07 14:27 | 72.76308 | -66.00059 | 38204 ft | 437 kts | 261° |
| 2026-05-07 14:28 | 72.75192 | -66.20189 | 38202 ft | 437 kts | 260° |
| 2026-05-07 14:28 | 72.74054 | -66.40311 | 38201 ft | 437 kts | 260° |
| 2026-05-07 14:29 | 72.72897 | -66.60394 | 38201 ft | 437 kts | 260° |
| 2026-05-07 14:29 | 72.71719 | -66.80470 | 38203 ft | 437 kts | 260° |
| 2026-05-07 14:30 | 72.70521 | -67.00510 | 38197 ft | 437 kts | 259° |
| 2026-05-07 14:30 | 72.69300 | -67.20573 | 38204 ft | 440 kts | 259° |
| 2026-05-07 14:31 | 72.68053 | -67.40728 | 38210 ft | 441 kts | 259° |
| 2026-05-07 14:31 | 72.66784 | -67.60883 | 38205 ft | 442 kts | 258° |
| 2026-05-07 14:32 | 72.65216 | -67.80784 | 38205 ft | 442 kts | 254° |
| 2026-05-07 14:32 | 72.63376 | -68.00422 | 38207 ft | 442 kts | 253° |
| 2026-05-07 14:33 | 72.61477 | -68.19998 | 38204 ft | 442 kts | 252° |
| 2026-05-07 14:33 | 72.59561 | -68.39532 | 38205 ft | 442 kts | 252° |
| 2026-05-07 14:34 | 72.57634 | -68.59022 | 38200 ft | 442 kts | 252° |
| 2026-05-07 14:34 | 72.55689 | -68.78488 | 38202 ft | 442 kts | 252° |
| 2026-05-07 14:35 | 72.53726 | -68.97910 | 38200 ft | 443 kts | 252° |
| 2026-05-07 14:35 | 72.51733 | -69.17398 | 38206 ft | 446 kts | 251° |
| 2026-05-07 14:36 | 72.49727 | -69.36763 | 38205 ft | 446 kts | 251° |
| 2026-05-07 14:36 | 72.47691 | -69.56204 | 38206 ft | 446 kts | 251° |
| 2026-05-07 14:37 | 72.45633 | -69.75630 | 38203 ft | 446 kts | 251° |
| 2026-05-07 14:37 | 72.42513 | -70.04663 | 38206 ft | 446 kts | 251° |
| 2026-05-07 14:38 | 72.40410 | -70.23955 | 38208 ft | 446 kts | 250° |
| 2026-05-07 14:38 | 72.38288 | -70.43218 | 38209 ft | 446 kts | 250° |
| 2026-05-07 14:39 | 72.36143 | -70.62461 | 38207 ft | 447 kts | 250° |
| 2026-05-07 14:39 | 72.33975 | -70.81690 | 38208 ft | 450 kts | 249° |
| 2026-05-07 14:40 | 72.31777 | -71.00993 | 38214 ft | 451 kts | 249° |
| 2026-05-07 14:40 | 72.29559 | -71.20261 | 38214 ft | 451 kts | 249° |
| 2026-05-07 14:41 | 72.27322 | -71.39471 | 38213 ft | 451 kts | 249° |
| 2026-05-07 14:41 | 72.25064 | -71.58660 | 38219 ft | 451 kts | 249° |
| 2026-05-07 14:42 | 72.22789 | -71.77782 | 38222 ft | 451 kts | 249° |
| 2026-05-07 14:42 | 72.20494 | -71.96877 | 38223 ft | 451 kts | 248° |
| 2026-05-07 14:43 | 72.18180 | -72.15921 | 38226 ft | 451 kts | 248° |
| 2026-05-07 14:43 | 72.15849 | -72.34909 | 38225 ft | 451 kts | 247° |
| 2026-05-07 14:44 | 72.13490 | -72.53919 | 38230 ft | 454 kts | 248° |
| 2026-05-07 14:44 | 72.11098 | -72.73007 | 38233 ft | 455 kts | 247° |
| 2026-05-07 14:45 | 72.08689 | -72.92037 | 38233 ft | 455 kts | 247° |
| 2026-05-07 14:45 | 72.06257 | -73.11041 | 38236 ft | 455 kts | 247° |
| 2026-05-07 14:46 | 72.03810 | -73.29980 | 38243 ft | 455 kts | 247° |
| 2026-05-07 14:46 | 72.01345 | -73.48860 | 38241 ft | 455 kts | 246° |
| 2026-05-07 14:47 | 71.98862 | -73.67687 | 38245 ft | 455 kts | 246° |
| 2026-05-07 14:47 | 71.96360 | -73.86469 | 38240 ft | 455 kts | 246° |
| 2026-05-07 14:48 | 71.93859 | -74.05072 | 38238 ft | 455 kts | 245° |
| 2026-05-07 14:48 | 71.91304 | -74.23875 | 38243 ft | 461 kts | 245° |
| 2026-05-07 14:49 | 71.88715 | -74.42749 | 38225 ft | 462 kts | 245° |
| 2026-05-07 14:49 | 71.86105 | -74.61582 | 38228 ft | 462 kts | 245° |
| 2026-05-07 14:50 | 71.83478 | -74.80358 | 38227 ft | 461 kts | 245° |
| 2026-05-07 14:50 | 71.80835 | -74.99070 | 38200 ft | 461 kts | 245° |
| 2026-05-07 14:51 | 71.78172 | -75.17737 | 38198 ft | 461 kts | 245° |
| 2026-05-07 14:51 | 71.75493 | -75.36347 | 38198 ft | 461 kts | 244° |
| 2026-05-07 14:52 | 71.72796 | -75.54898 | 38179 ft | 461 kts | 244° |
| 2026-05-07 14:52 | 71.70078 | -75.73416 | 38162 ft | 463 kts | 244° |
| 2026-05-07 14:53 | 71.67320 | -75.92030 | 38161 ft | 466 kts | 243° |
| 2026-05-07 14:53 | 71.64540 | -76.10625 | 38119 ft | 466 kts | 243° |
| 2026-05-07 14:54 | 71.61741 | -76.29168 | 38109 ft | 466 kts | 243° |
| 2026-05-07 14:54 | 71.58927 | -76.47632 | 38121 ft | 466 kts | 243° |
| 2026-05-07 14:55 | 71.56097 | -76.66035 | 38116 ft | 466 kts | 243° |
| 2026-05-07 14:55 | 71.53245 | -76.84410 | 38115 ft | 466 kts | 243° |
| 2026-05-07 14:56 | 71.50379 | -77.02701 | 38108 ft | 466 kts | 242° |
| 2026-05-07 14:56 | 71.47496 | -77.20942 | 38093 ft | 466 kts | 242° |
| 2026-05-07 14:57 | 71.44577 | -77.39238 | 38089 ft | 471 kts | 242° |
| 2026-05-07 14:57 | 71.41636 | -77.57509 | 38075 ft | 473 kts | 242° |
| 2026-05-07 14:58 | 71.38656 | -77.75855 | 38066 ft | 473 kts | 241° |
| 2026-05-07 14:58 | 71.35659 | -77.94145 | 38068 ft | 472 kts | 241° |
| 2026-05-07 14:59 | 71.32643 | -78.12383 | 38056 ft | 472 kts | 241° |
| 2026-05-07 14:59 | 71.29612 | -78.30547 | 38060 ft | 472 kts | 240° |
| 2026-05-07 15:00 | 71.26562 | -78.48662 | 38063 ft | 472 kts | 240° |
| 2026-05-07 15:00 | 71.23496 | -78.66716 | 38067 ft | 472 kts | 240° |
| 2026-05-07 15:01 | 71.20412 | -78.84718 | 38054 ft | 474 kts | 240° |
| 2026-05-07 15:01 | 71.17289 | -79.02780 | 38049 ft | 477 kts | 240° |
| 2026-05-07 15:02 | 71.14140 | -79.20839 | 38049 ft | 477 kts | 240° |
| 2026-05-07 15:02 | 71.10977 | -79.38827 | 38048 ft | 477 kts | 239° |
| 2026-05-07 15:03 | 71.07795 | -79.56762 | 38047 ft | 477 kts | 239° |
| 2026-05-07 15:03 | 71.05136 | -79.71629 | 38054 ft | 477 kts | 239° |
| 2026-05-07 15:04 | 71.01923 | -79.89455 | 38052 ft | 477 kts | 239° |
| 2026-05-07 15:04 | 70.98680 | -80.07195 | 38048 ft | 476 kts | 238° |
| 2026-05-07 15:05 | 70.95259 | -80.24519 | 38054 ft | 475 kts | 236° |
| 2026-05-07 15:05 | 70.91776 | -80.41693 | 38054 ft | 475 kts | 236° |
| 2026-05-07 15:06 | 70.88300 | -80.58845 | 38047 ft | 475 kts | 236° |
| 2026-05-07 15:06 | 70.84826 | -80.75975 | 38053 ft | 475 kts | 236° |
| 2026-05-07 15:07 | 70.81344 | -80.93044 | 38052 ft | 475 kts | 236° |
| 2026-05-07 15:07 | 70.77845 | -81.10048 | 38049 ft | 475 kts | 236° |
| 2026-05-07 15:08 | 70.74328 | -81.27003 | 38053 ft | 475 kts | 236° |
| 2026-05-07 15:08 | 70.70804 | -81.43857 | 38056 ft | 473 kts | 236° |
| 2026-05-07 15:09 | 70.67269 | -81.60627 | 38058 ft | 474 kts | 235° |
| 2026-05-07 15:09 | 70.63739 | -81.77240 | 38052 ft | 472 kts | 235° |
| 2026-05-07 15:10 | 70.60188 | -81.93832 | 38055 ft | 471 kts | 235° |
| 2026-05-07 15:10 | 70.56624 | -82.10349 | 38047 ft | 471 kts | 235° |
| 2026-05-07 15:11 | 70.53043 | -82.26819 | 38061 ft | 471 kts | 234° |
| 2026-05-07 15:11 | 70.49450 | -82.43217 | 38054 ft | 471 kts | 234° |
| 2026-05-07 15:12 | 70.45844 | -82.59552 | 38057 ft | 470 kts | 234° |
| 2026-05-07 15:12 | 70.42228 | -82.75808 | 38063 ft | 470 kts | 234° |
| 2026-05-07 15:13 | 70.38600 | -82.91993 | 38067 ft | 471 kts | 233° |
| 2026-05-07 15:13 | 70.34931 | -83.08234 | 38062 ft | 475 kts | 233° |
| 2026-05-07 15:14 | 70.31232 | -83.24489 | 38059 ft | 475 kts | 233° |
| 2026-05-07 15:14 | 70.27519 | -83.40686 | 38059 ft | 475 kts | 233° |
| 2026-05-07 15:15 | 70.23791 | -83.56822 | 38058 ft | 475 kts | 233° |
| 2026-05-07 15:15 | 70.20049 | -83.72903 | 38051 ft | 475 kts | 233° |
| 2026-05-07 15:16 | 70.16291 | -83.88928 | 38047 ft | 475 kts | 233° |
| 2026-05-07 15:16 | 70.12520 | -84.04889 | 38047 ft | 475 kts | 233° |
| 2026-05-07 15:17 | 70.08756 | -84.20709 | 38044 ft | 477 kts | 232° |
| 2026-05-07 15:17 | 70.04932 | -84.36654 | 38037 ft | 479 kts | 232° |
| 2026-05-07 15:18 | 70.01086 | -84.52576 | 38038 ft | 479 kts | 232° |
| 2026-05-07 15:18 | 69.97222 | -84.68459 | 38026 ft | 479 kts | 232° |
| 2026-05-07 15:19 | 69.93349 | -84.84260 | 38027 ft | 479 kts | 232° |
| 2026-05-07 15:19 | 69.89462 | -85.00003 | 38025 ft | 479 kts | 232° |
| 2026-05-07 15:20 | 69.85564 | -85.15675 | 38016 ft | 479 kts | 232° |
| 2026-05-07 15:20 | 69.81652 | -85.31291 | 38016 ft | 479 kts | 231° |
| 2026-05-07 15:21 | 69.77724 | -85.46860 | 38018 ft | 480 kts | 231° |
| 2026-05-07 15:21 | 69.73768 | -85.62419 | 38006 ft | 481 kts | 231° |
| 2026-05-07 15:22 | 69.69796 | -85.77937 | 38006 ft | 481 kts | 231° |
| 2026-05-07 15:22 | 69.65810 | -85.93396 | 38005 ft | 481 kts | 232° |
| 2026-05-07 15:23 | 69.61825 | -86.08743 | 38000 ft | 478 kts | 231° |
| 2026-05-07 15:23 | 69.57836 | -86.23994 | 37994 ft | 478 kts | 231° |
| 2026-05-07 15:24 | 69.53836 | -86.39180 | 38011 ft | 478 kts | 231° |
| 2026-05-07 15:24 | 69.49820 | -86.54319 | 38009 ft | 478 kts | 231° |
| 2026-05-07 15:25 | 69.45790 | -86.69406 | 37996 ft | 478 kts | 231° |
| 2026-05-07 15:25 | 69.41776 | -86.84326 | 38020 ft | 478 kts | 231° |
| 2026-05-07 15:26 | 69.37720 | -86.99300 | 37995 ft | 478 kts | 231° |
| 2026-05-07 15:26 | 69.33646 | -87.14239 | 38010 ft | 479 kts | 231° |
| 2026-05-07 15:27 | 69.29557 | -87.29128 | 37998 ft | 479 kts | 230° |
| 2026-05-07 15:27 | 69.25453 | -87.43966 | 37999 ft | 479 kts | 230° |
| 2026-05-07 15:28 | 69.21334 | -87.58761 | 38023 ft | 479 kts | 230° |
| 2026-05-07 15:28 | 69.17206 | -87.73484 | 38023 ft | 480 kts | 230° |
| 2026-05-07 15:29 | 69.13058 | -87.88177 | 38018 ft | 481 kts | 230° |
| 2026-05-07 15:29 | 69.08890 | -88.02843 | 38016 ft | 481 kts | 229° |
| 2026-05-07 15:30 | 69.04712 | -88.17444 | 38023 ft | 481 kts | 229° |
| 2026-05-07 15:30 | 69.00522 | -88.31990 | 38023 ft | 480 kts | 229° |
| 2026-05-07 15:31 | 68.96325 | -88.46460 | 38029 ft | 480 kts | 229° |
| 2026-05-07 15:31 | 68.92112 | -88.60889 | 38028 ft | 480 kts | 229° |
| 2026-05-07 15:32 | 68.87889 | -88.75252 | 38028 ft | 480 kts | 229° |
| 2026-05-07 15:32 | 68.83655 | -88.89562 | 38025 ft | 481 kts | 228° |
| 2026-05-07 15:33 | 68.79403 | -89.03832 | 38021 ft | 481 kts | 228° |
| 2026-05-07 15:33 | 68.75136 | -89.18060 | 38022 ft | 481 kts | 228° |
| 2026-05-07 15:34 | 68.70857 | -89.32237 | 38019 ft | 481 kts | 228° |
| 2026-05-07 15:34 | 68.66564 | -89.46364 | 38022 ft | 481 kts | 228° |
| 2026-05-07 15:35 | 68.62262 | -89.60429 | 38026 ft | 481 kts | 227° |
| 2026-05-07 15:35 | 68.57947 | -89.74444 | 38027 ft | 481 kts | 227° |
| 2026-05-07 15:36 | 68.53620 | -89.88406 | 38026 ft | 481 kts | 227° |
| 2026-05-07 15:36 | 68.49282 | -90.02327 | 38012 ft | 483 kts | 227° |
| 2026-05-07 15:37 | 68.45151 | -90.16847 | 38004 ft | 486 kts | 231° |
| 2026-05-07 15:37 | 68.41147 | -90.31673 | 38004 ft | 486 kts | 231° |
| 2026-05-07 15:38 | 68.37106 | -90.46374 | 38025 ft | 486 kts | 230° |
| 2026-05-07 15:38 | 68.33040 | -90.60855 | 38026 ft | 486 kts | 230° |
| 2026-05-07 15:39 | 68.28898 | -90.75440 | 38012 ft | 486 kts | 230° |
| 2026-05-07 15:39 | 68.24796 | -90.89780 | 38020 ft | 486 kts | 229° |
| 2026-05-07 15:40 | 68.20662 | -91.04150 | 38017 ft | 485 kts | 229° |
| 2026-05-07 15:40 | 68.16523 | -91.18448 | 38009 ft | 485 kts | 229° |
| 2026-05-07 15:41 | 68.12362 | -91.32726 | 38008 ft | 486 kts | 229° |
| 2026-05-07 15:41 | 68.08179 | -91.46983 | 38006 ft | 487 kts | 229° |
| 2026-05-07 15:42 | 68.03984 | -91.61192 | 38004 ft | 487 kts | 229° |
| 2026-05-07 15:42 | 67.99777 | -91.75348 | 38005 ft | 487 kts | 229° |
| 2026-05-07 15:43 | 67.95556 | -91.89459 | 37995 ft | 487 kts | 229° |
| 2026-05-07 15:43 | 67.91335 | -92.03479 | 37993 ft | 485 kts | 229° |
| 2026-05-07 15:44 | 67.87111 | -92.17416 | 37993 ft | 484 kts | 229° |
| 2026-05-07 15:44 | 67.82877 | -92.31297 | 37999 ft | 484 kts | 229° |
| 2026-05-07 15:45 | 67.78630 | -92.45131 | 37999 ft | 484 kts | 229° |
| 2026-05-07 15:45 | 67.74374 | -92.58908 | 37990 ft | 484 kts | 229° |
| 2026-05-07 15:46 | 67.67971 | -92.79472 | 37988 ft | 484 kts | 228° |
| 2026-05-07 15:47 | 67.63699 | -92.93085 | 37984 ft | 481 kts | 228° |
| 2026-05-07 15:47 | 67.59438 | -93.06580 | 37988 ft | 480 kts | 228° |
| 2026-05-07 15:48 | 67.55172 | -93.20000 | 37988 ft | 480 kts | 228° |
| 2026-05-07 15:48 | 67.50898 | -93.33369 | 38003 ft | 479 kts | 228° |
| 2026-05-07 15:49 | 67.46620 | -93.46664 | 37986 ft | 483 kts | 227° |
| 2026-05-07 15:49 | 67.42287 | -93.60047 | 37985 ft | 484 kts | 227° |
| 2026-05-07 15:50 | 67.37934 | -93.73413 | 37993 ft | 485 kts | 227° |
| 2026-05-07 15:50 | 67.33559 | -93.86761 | 37981 ft | 486 kts | 227° |
| 2026-05-07 15:51 | 67.29164 | -94.00087 | 37979 ft | 486 kts | 227° |
| 2026-05-07 15:51 | 67.25474 | -94.11212 | 37982 ft | 486 kts | 227° |
| 2026-05-07 15:52 | 67.21089 | -94.24359 | 37973 ft | 486 kts | 227° |
| 2026-05-07 15:52 | 67.16635 | -94.37630 | 37980 ft | 486 kts | 226° |
| 2026-05-07 15:53 | 67.12192 | -94.50793 | 37976 ft | 488 kts | 227° |
| 2026-05-07 15:53 | 67.07730 | -94.63924 | 37953 ft | 486 kts | 227° |
| 2026-05-07 15:54 | 67.03286 | -94.76926 | 37977 ft | 484 kts | 226° |
| 2026-05-07 15:54 | 66.98842 | -94.89847 | 37978 ft | 484 kts | 226° |
| 2026-05-07 15:55 | 66.94414 | -95.02646 | 37956 ft | 484 kts | 226° |
| 2026-05-07 15:55 | 66.89950 | -95.15475 | 37954 ft | 484 kts | 226° |
| 2026-05-07 15:56 | 66.85473 | -95.28262 | 37974 ft | 484 kts | 226° |
| 2026-05-07 15:56 | 66.80991 | -95.40991 | 37964 ft | 484 kts | 226° |
| 2026-05-07 15:57 | 66.76499 | -95.53671 | 37970 ft | 483 kts | 226° |
| 2026-05-07 15:57 | 66.71994 | -95.66311 | 37972 ft | 483 kts | 226° |
| 2026-05-07 15:58 | 66.67485 | -95.78890 | 37984 ft | 483 kts | 226° |
| 2026-05-07 15:58 | 66.62962 | -95.91432 | 37979 ft | 483 kts | 226° |
| 2026-05-07 15:59 | 66.58427 | -96.03935 | 37989 ft | 483 kts | 226° |
| 2026-05-07 15:59 | 66.53884 | -96.16389 | 37990 ft | 483 kts | 226° |
| 2026-05-07 16:00 | 66.49335 | -96.28783 | 37975 ft | 483 kts | 226° |
| 2026-05-07 16:00 | 66.44768 | -96.41157 | 37985 ft | 484 kts | 226° |
| 2026-05-07 16:01 | 66.40188 | -96.53495 | 37989 ft | 485 kts | 226° |
| 2026-05-07 16:01 | 66.35588 | -96.65814 | 37982 ft | 485 kts | 226° |
| 2026-05-07 16:02 | 66.31006 | -96.78014 | 37982 ft | 485 kts | 226° |
| 2026-05-07 16:02 | 66.26387 | -96.90243 | 37982 ft | 485 kts | 226° |
| 2026-05-07 16:03 | 66.21757 | -97.02430 | 37974 ft | 486 kts | 226° |
| 2026-05-07 16:03 | 66.17109 | -97.14595 | 37981 ft | 486 kts | 226° |
| 2026-05-07 16:04 | 66.12451 | -97.26716 | 37986 ft | 486 kts | 225° |
| 2026-05-07 16:04 | 66.07783 | -97.38796 | 37989 ft | 486 kts | 225° |
| 2026-05-07 16:05 | 66.03102 | -97.50838 | 37982 ft | 487 kts | 225° |
| 2026-05-07 16:05 | 65.98404 | -97.62856 | 37990 ft | 488 kts | 225° |
| 2026-05-07 16:06 | 65.93697 | -97.74831 | 37991 ft | 488 kts | 225° |
| 2026-05-07 16:06 | 65.88980 | -97.86763 | 37984 ft | 488 kts | 225° |
| 2026-05-07 16:07 | 65.84254 | -97.98648 | 37989 ft | 488 kts | 225° |
| 2026-05-07 16:07 | 65.79516 | -98.10499 | 37990 ft | 488 kts | 225° |
| 2026-05-07 16:08 | 65.74771 | -98.22301 | 37983 ft | 488 kts | 225° |
| 2026-05-07 16:08 | 65.70019 | -98.34053 | 38003 ft | 488 kts | 225° |
| 2026-05-07 16:09 | 65.65248 | -98.45788 | 37978 ft | 489 kts | 225° |
| 2026-05-07 16:09 | 65.60469 | -98.57476 | 37987 ft | 488 kts | 224° |
| 2026-05-07 16:10 | 65.55687 | -98.69109 | 37985 ft | 488 kts | 224° |
| 2026-05-07 16:10 | 65.50894 | -98.80703 | 37998 ft | 488 kts | 224° |
| 2026-05-07 16:11 | 65.46093 | -98.92251 | 37988 ft | 488 kts | 224° |
| 2026-05-07 16:11 | 65.41286 | -99.03752 | 37988 ft | 488 kts | 224° |
| 2026-05-07 16:12 | 65.36467 | -99.15219 | 37999 ft | 488 kts | 224° |
| 2026-05-07 16:12 | 65.31644 | -99.26631 | 37993 ft | 487 kts | 224° |
| 2026-05-07 16:13 | 65.26822 | -99.37980 | 38005 ft | 487 kts | 224° |
| 2026-05-07 16:13 | 65.22020 | -99.49220 | 38002 ft | 487 kts | 224° |
| 2026-05-07 16:14 | 65.17181 | -99.60488 | 37994 ft | 487 kts | 223° |
| 2026-05-07 16:14 | 65.12336 | -99.71707 | 38004 ft | 486 kts | 223° |
| 2026-05-07 16:15 | 65.07477 | -99.82901 | 38004 ft | 487 kts | 223° |
| 2026-05-07 16:15 | 65.02610 | -99.94051 | 38012 ft | 487 kts | 224° |
| 2026-05-07 16:15 | 65.00172 | -99.99614 | 38120 ft | 489 kts | 223° |
| 2026-05-07 16:16 | 64.97751 | -100.05276 | 38245 ft | 490 kts | 226° |
| 2026-05-07 16:16 | 64.95413 | -100.11147 | 38418 ft | 490 kts | 227° |
| 2026-05-07 16:16 | 64.93118 | -100.17100 | 38604 ft | 490 kts | 228° |
| 2026-05-07 16:16 | 64.90835 | -100.23058 | 38769 ft | 490 kts | 227° |
| 2026-05-07 16:17 | 64.88545 | -100.28989 | 38901 ft | 490 kts | 227° |
| 2026-05-07 16:17 | 64.86238 | -100.34900 | 39026 ft | 489 kts | 227° |
| 2026-05-07 16:17 | 64.83925 | -100.40768 | 39158 ft | 489 kts | 227° |
| 2026-05-07 16:17 | 64.81602 | -100.46612 | 39280 ft | 489 kts | 227° |
| 2026-05-07 16:18 | 64.79274 | -100.52435 | 39399 ft | 489 kts | 226° |
| 2026-05-07 16:18 | 64.76941 | -100.58249 | 39515 ft | 490 kts | 226° |
| 2026-05-07 16:18 | 64.74606 | -100.64049 | 39667 ft | 488 kts | 227° |
| 2026-05-07 16:18 | 64.72279 | -100.69819 | 39803 ft | 488 kts | 226° |
| 2026-05-07 16:19 | 64.69949 | -100.75580 | 39906 ft | 488 kts | 226° |
| 2026-05-07 16:19 | 64.65271 | -100.87106 | 40018 ft | 491 kts | 226° |
| 2026-05-07 16:20 | 64.60543 | -100.98697 | 40023 ft | 496 kts | 226° |
| 2026-05-07 16:20 | 64.55783 | -101.10302 | 40033 ft | 494 kts | 226° |
| 2026-05-07 16:21 | 64.51035 | -101.21813 | 40025 ft | 493 kts | 226° |
| 2026-05-07 16:21 | 64.46285 | -101.33268 | 40034 ft | 492 kts | 227° |
| 2026-05-07 16:22 | 64.41546 | -101.44639 | 40038 ft | 490 kts | 226° |
| 2026-05-07 16:22 | 64.36806 | -101.55950 | 40049 ft | 490 kts | 226° |
| 2026-05-07 16:23 | 64.32058 | -101.67220 | 40049 ft | 490 kts | 226° |
| 2026-05-07 16:23 | 64.27300 | -101.78458 | 40051 ft | 490 kts | 226° |
| 2026-05-07 16:24 | 64.22531 | -101.89659 | 40059 ft | 490 kts | 226° |
| 2026-05-07 16:24 | 64.17760 | -102.00808 | 40048 ft | 490 kts | 226° |
| 2026-05-07 16:25 | 64.12972 | -102.11938 | 40072 ft | 490 kts | 226° |
| 2026-05-07 16:25 | 64.08183 | -102.23013 | 40073 ft | 490 kts | 226° |
| 2026-05-07 16:26 | 64.03378 | -102.34066 | 40069 ft | 490 kts | 226° |
| 2026-05-07 16:26 | 63.98568 | -102.45075 | 40084 ft | 490 kts | 226° |
| 2026-05-07 16:27 | 63.93751 | -102.56040 | 40083 ft | 490 kts | 226° |
| 2026-05-07 16:27 | 63.88923 | -102.66977 | 40084 ft | 489 kts | 225° |
| 2026-05-07 16:28 | 63.84098 | -102.77850 | 40086 ft | 489 kts | 225° |
| 2026-05-07 16:28 | 63.79263 | -102.88690 | 40094 ft | 489 kts | 225° |
| 2026-05-07 16:29 | 63.74424 | -102.99483 | 40092 ft | 488 kts | 225° |
| 2026-05-07 16:29 | 63.69618 | -103.10149 | 40103 ft | 488 kts | 225° |
| 2026-05-07 16:30 | 63.64773 | -103.20848 | 40100 ft | 488 kts | 225° |
| 2026-05-07 16:30 | 63.59924 | -103.31500 | 40096 ft | 487 kts | 225° |
| 2026-05-07 16:31 | 63.55075 | -103.42100 | 40104 ft | 486 kts | 225° |
| 2026-05-07 16:31 | 63.50221 | -103.52657 | 40103 ft | 486 kts | 225° |
| 2026-05-07 16:32 | 63.45363 | -103.63171 | 40105 ft | 486 kts | 225° |
| 2026-05-07 16:32 | 63.40495 | -103.73654 | 40105 ft | 486 kts | 225° |
| 2026-05-07 16:33 | 63.35618 | -103.84105 | 40099 ft | 486 kts | 225° |
| 2026-05-07 16:33 | 63.30742 | -103.94500 | 40107 ft | 485 kts | 225° |
| 2026-05-07 16:34 | 63.25871 | -104.04837 | 40105 ft | 484 kts | 225° |
| 2026-05-07 16:34 | 63.20994 | -104.15135 | 40108 ft | 484 kts | 225° |
| 2026-05-07 16:35 | 63.16111 | -104.25391 | 40111 ft | 484 kts | 224° |
| 2026-05-07 16:35 | 63.11218 | -104.35623 | 40110 ft | 484 kts | 224° |
| 2026-05-07 16:36 | 63.07147 | -104.44099 | 40108 ft | 484 kts | 224° |
| 2026-05-07 16:36 | 63.02241 | -104.54264 | 40108 ft | 484 kts | 224° |
| 2026-05-07 16:37 | 62.96500 | -104.66099 | 40108 ft | 484 kts | 224° |
| 2026-05-07 16:37 | 62.92415 | -104.74478 | 40105 ft | 482 kts | 224° |
| 2026-05-07 16:38 | 62.87511 | -104.84494 | 40105 ft | 481 kts | 224° |
| 2026-05-07 16:38 | 62.82612 | -104.94452 | 40105 ft | 481 kts | 224° |
| 2026-05-07 16:39 | 62.77704 | -105.04381 | 40104 ft | 481 kts | 224° |
| 2026-05-07 16:39 | 62.72791 | -105.14272 | 40102 ft | 480 kts | 224° |
| 2026-05-07 16:40 | 62.67876 | -105.24123 | 40103 ft | 480 kts | 224° |
| 2026-05-07 16:40 | 62.62954 | -105.33940 | 40102 ft | 480 kts | 224° |
| 2026-05-07 16:41 | 62.58022 | -105.43732 | 40102 ft | 480 kts | 224° |
| 2026-05-07 16:41 | 62.53086 | -105.53485 | 40099 ft | 480 kts | 223° |
| 2026-05-07 16:42 | 62.48139 | -105.63213 | 40091 ft | 480 kts | 223° |
| 2026-05-07 16:42 | 62.43195 | -105.72890 | 40097 ft | 479 kts | 223° |
| 2026-05-07 16:43 | 62.38246 | -105.82532 | 40096 ft | 479 kts | 223° |
| 2026-05-07 16:43 | 62.33290 | -105.92144 | 40097 ft | 479 kts | 223° |
| 2026-05-07 16:44 | 62.28327 | -106.01723 | 40094 ft | 479 kts | 223° |
| 2026-05-07 16:44 | 62.23359 | -106.11269 | 40094 ft | 479 kts | 223° |
| 2026-05-07 16:45 | 62.18387 | -106.20778 | 40087 ft | 479 kts | 223° |
| 2026-05-07 16:45 | 62.13418 | -106.30238 | 40086 ft | 478 kts | 223° |
| 2026-05-07 16:46 | 62.08443 | -106.39666 | 40085 ft | 478 kts | 223° |
| 2026-05-07 16:46 | 62.03492 | -106.49008 | 40083 ft | 478 kts | 223° |
| 2026-05-07 16:47 | 61.98502 | -106.58379 | 40080 ft | 478 kts | 223° |
| 2026-05-07 16:47 | 61.93509 | -106.67713 | 40072 ft | 478 kts | 223° |
| 2026-05-07 16:48 | 61.88506 | -106.77022 | 40072 ft | 477 kts | 223° |
| 2026-05-07 16:48 | 61.83518 | -106.86263 | 40065 ft | 477 kts | 223° |
| 2026-05-07 16:49 | 61.78513 | -106.95493 | 40063 ft | 477 kts | 222° |
| 2026-05-07 16:49 | 61.73507 | -107.04684 | 40058 ft | 477 kts | 223° |
| 2026-05-07 16:50 | 61.68491 | -107.13853 | 40055 ft | 477 kts | 222° |
| 2026-05-07 16:50 | 61.63465 | -107.23000 | 40051 ft | 477 kts | 222° |
| 2026-05-07 16:51 | 61.58436 | -107.32108 | 40050 ft | 476 kts | 222° |
| 2026-05-07 16:51 | 61.53418 | -107.41159 | 40045 ft | 476 kts | 222° |
| 2026-05-07 16:52 | 61.48391 | -107.50185 | 40042 ft | 476 kts | 222° |
| 2026-05-07 16:52 | 61.43361 | -107.59178 | 40042 ft | 476 kts | 222° |
| 2026-05-07 16:53 | 61.38323 | -107.68146 | 40034 ft | 476 kts | 222° |
| 2026-05-07 16:53 | 61.33278 | -107.77086 | 40023 ft | 476 kts | 222° |
| 2026-05-07 16:54 | 61.28236 | -107.85981 | 40022 ft | 475 kts | 222° |
| 2026-05-07 16:54 | 61.23195 | -107.94837 | 40024 ft | 475 kts | 222° |
| 2026-05-07 16:55 | 61.18148 | -108.03665 | 40020 ft | 475 kts | 222° |
| 2026-05-07 16:55 | 61.13094 | -108.12467 | 40018 ft | 475 kts | 222° |
| 2026-05-07 16:56 | 61.08030 | -108.21247 | 40018 ft | 475 kts | 221° |
| 2026-05-07 16:56 | 61.00437 | -108.34339 | 40009 ft | 473 kts | 221° |
| 2026-05-07 16:57 | 60.95415 | -108.42955 | 40007 ft | 473 kts | 221° |
| 2026-05-07 16:57 | 60.90351 | -108.51607 | 40006 ft | 473 kts | 221° |
| 2026-05-07 16:58 | 60.85279 | -108.60232 | 40005 ft | 474 kts | 221° |
| 2026-05-07 16:58 | 60.80202 | -108.68831 | 39996 ft | 473 kts | 221° |
| 2026-05-07 16:59 | 60.75118 | -108.77405 | 39989 ft | 473 kts | 221° |
| 2026-05-07 16:59 | 60.70038 | -108.85934 | 39981 ft | 472 kts | 221° |
| 2026-05-07 17:00 | 60.64957 | -108.94430 | 39984 ft | 472 kts | 221° |
| 2026-05-07 17:00 | 60.59877 | -109.02890 | 39995 ft | 472 kts | 221° |
| 2026-05-07 17:01 | 60.54786 | -109.11332 | 39975 ft | 472 kts | 221° |
| 2026-05-07 17:01 | 60.49693 | -109.19742 | 39985 ft | 472 kts | 221° |
| 2026-05-07 17:02 | 60.44588 | -109.28137 | 39971 ft | 472 kts | 221° |
| 2026-05-07 17:02 | 60.39487 | -109.36489 | 39980 ft | 471 kts | 221° |
| 2026-05-07 17:03 | 60.34384 | -109.44811 | 39958 ft | 471 kts | 221° |
| 2026-05-07 17:03 | 60.29277 | -109.53104 | 39967 ft | 471 kts | 221° |
| 2026-05-07 17:04 | 60.24165 | -109.61372 | 39969 ft | 471 kts | 221° |
| 2026-05-07 17:04 | 60.19047 | -109.69616 | 39950 ft | 471 kts | 221° |
| 2026-05-07 17:05 | 60.13923 | -109.77835 | 39961 ft | 471 kts | 221° |
| 2026-05-07 17:05 | 60.08793 | -109.86029 | 39943 ft | 471 kts | 220° |
| 2026-05-07 17:06 | 60.03658 | -109.94200 | 39950 ft | 472 kts | 220° |
| 2026-05-07 17:06 | 59.98512 | -110.02328 | 39949 ft | 472 kts | 219° |
| 2026-05-07 17:07 | 59.93177 | -110.09978 | 39950 ft | 473 kts | 217° |
| 2026-05-07 17:07 | 59.87759 | -110.17417 | 39941 ft | 472 kts | 217° |
| 2026-05-07 17:08 | 59.82372 | -110.24871 | 39941 ft | 471 kts | 217° |
| 2026-05-07 17:08 | 59.77013 | -110.32346 | 39947 ft | 471 kts | 217° |
| 2026-05-07 17:09 | 59.71655 | -110.39816 | 39941 ft | 471 kts | 217° |
| 2026-05-07 17:09 | 59.66286 | -110.47273 | 39945 ft | 471 kts | 217° |
| 2026-05-07 17:10 | 59.60944 | -110.54658 | 39938 ft | 471 kts | 217° |
| 2026-05-07 17:10 | 59.55567 | -110.62058 | 39934 ft | 471 kts | 217° |
| 2026-05-07 17:11 | 59.50193 | -110.69426 | 39936 ft | 471 kts | 217° |
| 2026-05-07 17:11 | 59.44813 | -110.76773 | 39935 ft | 470 kts | 217° |
| 2026-05-07 17:12 | 59.39435 | -110.84089 | 39936 ft | 470 kts | 217° |
| 2026-05-07 17:12 | 59.34048 | -110.91388 | 39921 ft | 471 kts | 217° |
| 2026-05-07 17:13 | 59.28653 | -110.98669 | 39924 ft | 471 kts | 217° |
| 2026-05-07 17:13 | 59.23254 | -111.05928 | 39917 ft | 471 kts | 217° |
| 2026-05-07 17:14 | 59.17852 | -111.13160 | 39917 ft | 471 kts | 217° |
| 2026-05-07 17:14 | 59.12451 | -111.20366 | 39908 ft | 470 kts | 217° |
| 2026-05-07 17:15 | 59.07045 | -111.27548 | 39911 ft | 470 kts | 217° |
| 2026-05-07 17:15 | 59.01672 | -111.34659 | 39898 ft | 470 kts | 217° |
| 2026-05-07 17:16 | 58.96259 | -111.41796 | 39882 ft | 470 kts | 217° |
| 2026-05-07 17:16 | 58.90844 | -111.48908 | 39886 ft | 470 kts | 217° |
| 2026-05-07 17:17 | 58.85424 | -111.55998 | 39882 ft | 470 kts | 217° |
| 2026-05-07 17:17 | 58.80003 | -111.63065 | 39889 ft | 470 kts | 217° |
| 2026-05-07 17:18 | 58.74583 | -111.70101 | 39881 ft | 470 kts | 217° |
| 2026-05-07 17:18 | 58.69153 | -111.77125 | 39881 ft | 470 kts | 217° |
| 2026-05-07 17:19 | 58.63715 | -111.84130 | 39862 ft | 470 kts | 217° |
| 2026-05-07 17:19 | 58.58285 | -111.91100 | 39875 ft | 470 kts | 217° |
| 2026-05-07 17:20 | 58.52848 | -111.98052 | 39879 ft | 470 kts | 217° |
| 2026-05-07 17:20 | 58.47405 | -112.04985 | 39872 ft | 470 kts | 217° |
| 2026-05-07 17:21 | 58.41965 | -112.11889 | 39874 ft | 470 kts | 217° |
| 2026-05-07 17:21 | 58.36516 | -112.18778 | 39869 ft | 470 kts | 216° |
| 2026-05-07 17:22 | 58.31062 | -112.25647 | 39856 ft | 470 kts | 216° |
| 2026-05-07 17:22 | 58.25612 | -112.32485 | 39863 ft | 469 kts | 216° |
| 2026-05-07 17:23 | 58.21042 | -112.38199 | 39861 ft | 469 kts | 216° |
| 2026-05-07 17:23 | 58.15586 | -112.44999 | 39854 ft | 470 kts | 216° |
| 2026-05-07 17:24 | 58.10160 | -112.51735 | 39851 ft | 470 kts | 216° |
| 2026-05-07 17:24 | 58.04658 | -112.58541 | 39851 ft | 470 kts | 216° |
| 2026-05-07 17:25 | 57.99185 | -112.65285 | 39842 ft | 470 kts | 216° |
| 2026-05-07 17:25 | 57.93714 | -112.72003 | 39843 ft | 470 kts | 216° |
| 2026-05-07 17:26 | 57.88275 | -112.78657 | 39837 ft | 470 kts | 216° |
| 2026-05-07 17:26 | 57.82797 | -112.85333 | 39842 ft | 469 kts | 216° |
| 2026-05-07 17:27 | 57.77310 | -112.91996 | 39844 ft | 470 kts | 216° |
| 2026-05-07 17:27 | 57.71819 | -112.98638 | 39820 ft | 470 kts | 216° |
| 2026-05-07 17:28 | 57.66329 | -113.05256 | 39838 ft | 470 kts | 216° |
| 2026-05-07 17:28 | 57.60835 | -113.11855 | 39842 ft | 470 kts | 216° |
| 2026-05-07 17:29 | 57.55333 | -113.18438 | 39837 ft | 470 kts | 216° |
| 2026-05-07 17:29 | 57.49826 | -113.25005 | 39846 ft | 470 kts | 216° |
| 2026-05-07 17:30 | 57.44319 | -113.31547 | 39845 ft | 470 kts | 216° |
| 2026-05-07 17:30 | 57.38807 | -113.38071 | 39844 ft | 470 kts | 216° |
| 2026-05-07 17:31 | 57.33286 | -113.44583 | 39851 ft | 470 kts | 216° |
| 2026-05-07 17:31 | 57.27766 | -113.51070 | 39856 ft | 470 kts | 216° |
| 2026-05-07 17:32 | 57.22243 | -113.57537 | 39852 ft | 470 kts | 216° |
| 2026-05-07 17:32 | 57.16717 | -113.63984 | 39859 ft | 470 kts | 216° |
| 2026-05-07 17:33 | 57.11181 | -113.70419 | 39857 ft | 470 kts | 216° |
| 2026-05-07 17:33 | 57.05647 | -113.76830 | 39853 ft | 470 kts | 216° |
| 2026-05-07 17:34 | 57.00108 | -113.83223 | 39859 ft | 470 kts | 216° |
| 2026-05-07 17:34 | 56.94569 | -113.89593 | 39858 ft | 470 kts | 216° |
| 2026-05-07 17:35 | 56.89028 | -113.95944 | 39866 ft | 470 kts | 216° |
| 2026-05-07 17:35 | 56.83479 | -114.02281 | 39864 ft | 470 kts | 216° |
| 2026-05-07 17:36 | 56.77930 | -114.08595 | 39863 ft | 470 kts | 216° |
| 2026-05-07 17:36 | 56.72387 | -114.14879 | 39864 ft | 469 kts | 216° |
| 2026-05-07 17:37 | 56.66846 | -114.21141 | 39871 ft | 469 kts | 216° |
| 2026-05-07 17:37 | 56.61301 | -114.27386 | 39863 ft | 469 kts | 216° |
| 2026-05-07 17:38 | 56.55745 | -114.33621 | 39886 ft | 470 kts | 216° |
| 2026-05-07 17:38 | 56.50221 | -114.39798 | 39848 ft | 470 kts | 216° |
| 2026-05-07 17:39 | 56.44662 | -114.45987 | 39881 ft | 469 kts | 216° |
| 2026-05-07 17:39 | 56.39109 | -114.52155 | 39884 ft | 468 kts | 216° |
| 2026-05-07 17:40 | 56.33559 | -114.58299 | 39884 ft | 468 kts | 216° |
| 2026-05-07 17:40 | 56.28004 | -114.64426 | 39892 ft | 468 kts | 216° |
| 2026-05-07 17:41 | 56.22443 | -114.70537 | 39892 ft | 468 kts | 216° |
| 2026-05-07 17:41 | 56.16883 | -114.76624 | 39895 ft | 468 kts | 216° |
| 2026-05-07 17:42 | 56.11334 | -114.82680 | 39900 ft | 467 kts | 216° |
| 2026-05-07 17:42 | 56.05784 | -114.88719 | 39902 ft | 467 kts | 216° |
| 2026-05-07 17:43 | 56.00232 | -114.94738 | 39903 ft | 467 kts | 216° |
| 2026-05-07 17:43 | 55.94680 | -115.00737 | 39911 ft | 466 kts | 216° |
| 2026-05-07 17:44 | 55.89124 | -115.06718 | 39892 ft | 466 kts | 216° |
| 2026-05-07 17:44 | 55.83570 | -115.12677 | 39922 ft | 466 kts | 216° |
| 2026-05-07 17:45 | 55.78012 | -115.18620 | 39922 ft | 466 kts | 216° |
| 2026-05-07 17:45 | 55.72459 | -115.24540 | 39933 ft | 466 kts | 216° |
| 2026-05-07 17:46 | 55.66898 | -115.30447 | 39933 ft | 466 kts | 216° |
| 2026-05-07 17:46 | 55.61336 | -115.36336 | 39933 ft | 466 kts | 216° |
| 2026-05-07 17:47 | 55.55773 | -115.42205 | 39943 ft | 465 kts | 215° |
| 2026-05-07 17:47 | 55.50210 | -115.48056 | 39945 ft | 465 kts | 216° |
| 2026-05-07 17:48 | 55.44646 | -115.53889 | 39956 ft | 466 kts | 215° |
| 2026-05-07 17:48 | 55.39074 | -115.59710 | 39952 ft | 466 kts | 215° |
| 2026-05-07 17:49 | 55.33534 | -115.65478 | 39957 ft | 466 kts | 215° |
| 2026-05-07 17:49 | 55.27956 | -115.71267 | 39953 ft | 466 kts | 215° |
| 2026-05-07 17:50 | 55.22371 | -115.77045 | 39963 ft | 466 kts | 215° |
| 2026-05-07 17:50 | 55.16778 | -115.82811 | 39965 ft | 466 kts | 215° |
| 2026-05-07 17:51 | 55.11187 | -115.88558 | 39966 ft | 467 kts | 215° |
| 2026-05-07 17:51 | 55.05589 | -115.94292 | 39964 ft | 467 kts | 215° |
| 2026-05-07 17:52 | 54.99983 | -116.00016 | 39949 ft | 467 kts | 215° |
| 2026-05-07 17:52 | 54.94327 | -116.05610 | 39961 ft | 468 kts | 213° |
| 2026-05-07 17:53 | 54.88620 | -116.11052 | 39969 ft | 468 kts | 213° |
| 2026-05-07 17:53 | 54.82910 | -116.16492 | 39966 ft | 468 kts | 213° |
| 2026-05-07 17:54 | 54.77211 | -116.21941 | 39970 ft | 468 kts | 214° |
| 2026-05-07 17:54 | 54.71505 | -116.27394 | 39964 ft | 469 kts | 213° |
| 2026-05-07 17:55 | 54.65791 | -116.32835 | 39965 ft | 469 kts | 214° |
| 2026-05-07 17:55 | 54.60076 | -116.38261 | 39963 ft | 469 kts | 214° |
| 2026-05-07 17:56 | 54.54358 | -116.43672 | 39966 ft | 469 kts | 214° |
| 2026-05-07 17:56 | 54.48639 | -116.49065 | 39963 ft | 469 kts | 213° |
| 2026-05-07 17:57 | 54.43881 | -116.53539 | 39962 ft | 469 kts | 213° |
| 2026-05-07 17:57 | 54.37182 | -116.59817 | 39953 ft | 470 kts | 214° |
| 2026-05-07 17:58 | 54.31449 | -116.65172 | 39959 ft | 470 kts | 214° |
| 2026-05-07 17:58 | 54.25704 | -116.70521 | 39959 ft | 470 kts | 213° |
| 2026-05-07 17:59 | 54.19960 | -116.75852 | 39960 ft | 470 kts | 213° |
| 2026-05-07 17:59 | 54.14209 | -116.81171 | 39961 ft | 470 kts | 213° |
| 2026-05-07 18:00 | 54.08459 | -116.86473 | 39961 ft | 470 kts | 213° |
| 2026-05-07 18:00 | 54.02704 | -116.91763 | 39962 ft | 470 kts | 214° |
| 2026-05-07 18:01 | 53.96983 | -116.97007 | 39957 ft | 471 kts | 213° |
| 2026-05-07 18:01 | 53.91217 | -117.02274 | 39961 ft | 471 kts | 213° |
| 2026-05-07 18:02 | 53.82564 | -117.10147 | 39961 ft | 471 kts | 213° |
| 2026-05-07 18:03 | 53.76787 | -117.15381 | 39964 ft | 471 kts | 213° |
| 2026-05-07 18:03 | 53.71016 | -117.20594 | 39963 ft | 471 kts | 214° |
| 2026-05-07 18:04 | 53.65237 | -117.25800 | 39970 ft | 471 kts | 213° |
| 2026-05-07 18:04 | 53.59453 | -117.30994 | 39971 ft | 471 kts | 213° |
| 2026-05-07 18:05 | 53.53666 | -117.36172 | 39979 ft | 471 kts | 213° |
| 2026-05-07 18:05 | 53.47879 | -117.41330 | 39975 ft | 471 kts | 214° |
| 2026-05-07 18:06 | 53.42093 | -117.46479 | 39987 ft | 471 kts | 214° |
| 2026-05-07 18:06 | 53.36304 | -117.51614 | 39989 ft | 471 kts | 214° |
| 2026-05-07 18:07 | 53.30513 | -117.56734 | 39996 ft | 471 kts | 213° |
| 2026-05-07 18:07 | 53.24716 | -117.61842 | 40002 ft | 471 kts | 213° |
| 2026-05-07 18:08 | 53.18918 | -117.66932 | 40010 ft | 470 kts | 214° |
| 2026-05-07 18:08 | 53.13126 | -117.72001 | 40016 ft | 471 kts | 214° |
| 2026-05-07 18:09 | 53.07363 | -117.77037 | 40035 ft | 471 kts | 214° |
| 2026-05-07 18:09 | 53.01566 | -117.82086 | 40032 ft | 470 kts | 214° |
| 2026-05-07 18:10 | 52.95765 | -117.87119 | 40040 ft | 470 kts | 214° |
| 2026-05-07 18:10 | 52.90907 | -117.91320 | 40039 ft | 470 kts | 214° |
| 2026-05-07 18:11 | 52.85106 | -117.96324 | 40054 ft | 469 kts | 214° |
| 2026-05-07 18:11 | 52.79326 | -118.01309 | 40052 ft | 469 kts | 214° |